<?xml version="1.0" encoding="UTF-8" standalone="no" ?>
<gpx xmlns="http://www.topografix.com/GPX/1/1" xmlns:xsi="http://www.w3.org/2001/XMLSchema-instance" xsi:schemaLocation="http://www.topografix.com/GPX/1/1 http://www.topografix.com/GPX/1/1/gpx.xsd" version="1.1" creator="VisuGPX - https://www.visugpx.com">
  <metadata>
    <name>Cap d'Erquy</name>
    <desc><![CDATA[Incontournable cap d'Erquy avec baignade sur la plage de Lourtuais.]]></desc>
  </metadata>
  <trk>
    <name><![CDATA[Cap d'Erquy 8,5km 300m]]></name>
    <extensions>
      <line xmlns="http://www.topografix.com/GPX/gpx_style/0/2">
        <color>0000FF</color>
        <width>4</width>
      </line>
    </extensions>
    <trkseg>
      <trkpt lat="48.64538" lon="-2.45619">
        <ele>36.3</ele>
        <time>2020-07-27T07:15:00.000Z</time>
      </trkpt>
      <trkpt lat="48.64569" lon="-2.45634">
        <ele>35.1</ele>
        <time>2020-07-27T07:15:13.042Z</time>
      </trkpt>
      <trkpt lat="48.64584" lon="-2.45614">
        <ele>35</ele>
        <time>2020-07-27T07:15:54.630Z</time>
      </trkpt>
      <trkpt lat="48.64584" lon="-2.45632">
        <ele>35</ele>
        <time>2020-07-27T07:16:21.269Z</time>
      </trkpt>
      <trkpt lat="48.64578" lon="-2.45646">
        <ele>35</ele>
        <time>2020-07-27T07:16:45.964Z</time>
      </trkpt>
      <trkpt lat="48.64572" lon="-2.45662">
        <ele>35.3</ele>
        <time>2020-07-27T07:17:21.144Z</time>
      </trkpt>
      <trkpt lat="48.64567" lon="-2.45678">
        <ele>35.8</ele>
        <time>2020-07-27T07:18:04.199Z</time>
      </trkpt>
      <trkpt lat="48.64561" lon="-2.45693">
        <ele>36</ele>
        <time>2020-07-27T07:18:35.023Z</time>
      </trkpt>
      <trkpt lat="48.64557" lon="-2.45706">
        <ele>36</ele>
        <time>2020-07-27T07:18:56.246Z</time>
      </trkpt>
      <trkpt lat="48.64553" lon="-2.4572">
        <ele>36.1</ele>
        <time>2020-07-27T07:19:21.075Z</time>
      </trkpt>
      <trkpt lat="48.64547" lon="-2.45734">
        <ele>36.6</ele>
        <time>2020-07-27T07:20:02.980Z</time>
      </trkpt>
      <trkpt lat="48.64542" lon="-2.45747">
        <ele>36.9</ele>
        <time>2020-07-27T07:20:33.748Z</time>
      </trkpt>
      <trkpt lat="48.64535" lon="-2.45759">
        <ele>37</ele>
        <time>2020-07-27T07:20:59.685Z</time>
      </trkpt>
      <trkpt lat="48.6453" lon="-2.45775">
        <ele>37</ele>
        <time>2020-07-27T07:21:25.878Z</time>
      </trkpt>
      <trkpt lat="48.64522" lon="-2.45795">
        <ele>37</ele>
        <time>2020-07-27T07:22:00.478Z</time>
      </trkpt>
      <trkpt lat="48.64515" lon="-2.45811">
        <ele>37.1</ele>
        <time>2020-07-27T07:22:31.089Z</time>
      </trkpt>
      <trkpt lat="48.64509" lon="-2.45825">
        <ele>37.5</ele>
        <time>2020-07-27T07:23:08.075Z</time>
      </trkpt>
      <trkpt lat="48.645" lon="-2.45848">
        <ele>38</ele>
        <time>2020-07-27T07:24:01.485Z</time>
      </trkpt>
      <trkpt lat="48.64495" lon="-2.45864">
        <ele>38</ele>
        <time>2020-07-27T07:24:27.679Z</time>
      </trkpt>
      <trkpt lat="48.64488" lon="-2.45881">
        <ele>38</ele>
        <time>2020-07-27T07:24:57.323Z</time>
      </trkpt>
      <trkpt lat="48.64481" lon="-2.45897">
        <ele>38</ele>
        <time>2020-07-27T07:25:25.722Z</time>
      </trkpt>
      <trkpt lat="48.64466" lon="-2.45908">
        <ele>38.1</ele>
        <time>2020-07-27T07:26:05.227Z</time>
      </trkpt>
      <trkpt lat="48.64456" lon="-2.45914">
        <ele>38.1</ele>
        <time>2020-07-27T07:26:29.322Z</time>
      </trkpt>
      <trkpt lat="48.64445" lon="-2.4592">
        <ele>37.9</ele>
        <time>2020-07-27T07:26:35.132Z</time>
      </trkpt>
      <trkpt lat="48.64434" lon="-2.45926">
        <ele>37.9</ele>
        <time>2020-07-27T07:27:01.322Z</time>
      </trkpt>
      <trkpt lat="48.64424" lon="-2.45931">
        <ele>37.8</ele>
        <time>2020-07-27T07:27:07.088Z</time>
      </trkpt>
      <trkpt lat="48.64415" lon="-2.4594">
        <ele>37.4</ele>
        <time>2020-07-27T07:27:11.402Z</time>
      </trkpt>
      <trkpt lat="48.64407" lon="-2.45947">
        <ele>37.1</ele>
        <time>2020-07-27T07:27:15.272Z</time>
      </trkpt>
      <trkpt lat="48.64396" lon="-2.45953">
        <ele>36.9</ele>
        <time>2020-07-27T07:27:21.082Z</time>
      </trkpt>
      <trkpt lat="48.6438" lon="-2.45962">
        <ele>36.5</ele>
        <time>2020-07-27T07:27:28.958Z</time>
      </trkpt>
      <trkpt lat="48.6437" lon="-2.45968">
        <ele>36.1</ele>
        <time>2020-07-27T07:27:33.256Z</time>
      </trkpt>
      <trkpt lat="48.64359" lon="-2.45975">
        <ele>35.9</ele>
        <time>2020-07-27T07:27:39.210Z</time>
      </trkpt>
      <trkpt lat="48.64348" lon="-2.4598">
        <ele>36</ele>
        <time>2020-07-27T07:28:07.165Z</time>
      </trkpt>
      <trkpt lat="48.64343" lon="-2.45998">
        <ele>35.4</ele>
        <time>2020-07-27T07:28:11.890Z</time>
      </trkpt>
      <trkpt lat="48.64342" lon="-2.46014">
        <ele>35.9</ele>
        <time>2020-07-27T07:28:52.700Z</time>
      </trkpt>
      <trkpt lat="48.6434" lon="-2.46029">
        <ele>36.5</ele>
        <time>2020-07-27T07:29:34.882Z</time>
      </trkpt>
      <trkpt lat="48.64339" lon="-2.46044">
        <ele>37.1</ele>
        <time>2020-07-27T07:30:16.700Z</time>
      </trkpt>
      <trkpt lat="48.64337" lon="-2.46059">
        <ele>37.6</ele>
        <time>2020-07-27T07:30:56.158Z</time>
      </trkpt>
      <trkpt lat="48.64336" lon="-2.46073">
        <ele>37.8</ele>
        <time>2020-07-27T07:31:22.107Z</time>
      </trkpt>
      <trkpt lat="48.64335" lon="-2.46089">
        <ele>38.1</ele>
        <time>2020-07-27T07:31:54.196Z</time>
      </trkpt>
      <trkpt lat="48.64334" lon="-2.46106">
        <ele>38.8</ele>
        <time>2020-07-27T07:32:42.157Z</time>
      </trkpt>
      <trkpt lat="48.64334" lon="-2.46123">
        <ele>39.4</ele>
        <time>2020-07-27T07:33:27.157Z</time>
      </trkpt>
      <trkpt lat="48.64332" lon="-2.46139">
        <ele>40</ele>
        <time>2020-07-27T07:34:10.951Z</time>
      </trkpt>
      <trkpt lat="48.6433" lon="-2.46155">
        <ele>40.7</ele>
        <time>2020-07-27T07:34:57.703Z</time>
      </trkpt>
      <trkpt lat="48.64329" lon="-2.4617">
        <ele>41.3</ele>
        <time>2020-07-27T07:35:39.521Z</time>
      </trkpt>
      <trkpt lat="48.64328" lon="-2.46185">
        <ele>41.9</ele>
        <time>2020-07-27T07:36:21.339Z</time>
      </trkpt>
      <trkpt lat="48.64326" lon="-2.46202">
        <ele>42.5</ele>
        <time>2020-07-27T07:37:06.795Z</time>
      </trkpt>
      <trkpt lat="48.64324" lon="-2.46217">
        <ele>43.1</ele>
        <time>2020-07-27T07:37:48.977Z</time>
      </trkpt>
      <trkpt lat="48.64323" lon="-2.46232">
        <ele>43.7</ele>
        <time>2020-07-27T07:38:30.795Z</time>
      </trkpt>
      <trkpt lat="48.64322" lon="-2.46247">
        <ele>44.3</ele>
        <time>2020-07-27T07:39:12.612Z</time>
      </trkpt>
      <trkpt lat="48.64321" lon="-2.46262">
        <ele>44.7</ele>
        <time>2020-07-27T07:39:47.906Z</time>
      </trkpt>
      <trkpt lat="48.6432" lon="-2.46276">
        <ele>45</ele>
        <time>2020-07-27T07:40:17.481Z</time>
      </trkpt>
      <trkpt lat="48.64319" lon="-2.46291">
        <ele>45.2</ele>
        <time>2020-07-27T07:40:44.821Z</time>
      </trkpt>
      <trkpt lat="48.64318" lon="-2.46306">
        <ele>45.5</ele>
        <time>2020-07-27T07:41:15.633Z</time>
      </trkpt>
      <trkpt lat="48.64318" lon="-2.46322">
        <ele>45.6</ele>
        <time>2020-07-27T07:41:41.559Z</time>
      </trkpt>
      <trkpt lat="48.6432" lon="-2.46336">
        <ele>45.5</ele>
        <time>2020-07-27T07:41:46.668Z</time>
      </trkpt>
      <trkpt lat="48.64316" lon="-2.46348">
        <ele>45.9</ele>
        <time>2020-07-27T07:42:20.355Z</time>
      </trkpt>
      <trkpt lat="48.64307" lon="-2.46348">
        <ele>46.4</ele>
        <time>2020-07-27T07:42:56.935Z</time>
      </trkpt>
      <trkpt lat="48.64296" lon="-2.46349">
        <ele>47.1</ele>
        <time>2020-07-27T07:43:44.290Z</time>
      </trkpt>
      <trkpt lat="48.64286" lon="-2.46347">
        <ele>47.6</ele>
        <time>2020-07-27T07:44:23.685Z</time>
      </trkpt>
      <trkpt lat="48.64276" lon="-2.46343">
        <ele>48.1</ele>
        <time>2020-07-27T07:45:03.759Z</time>
      </trkpt>
      <trkpt lat="48.64266" lon="-2.46342">
        <ele>49</ele>
        <time>2020-07-27T07:45:56.858Z</time>
      </trkpt>
      <trkpt lat="48.64255" lon="-2.46341">
        <ele>49.8</ele>
        <time>2020-07-27T07:46:47.517Z</time>
      </trkpt>
      <trkpt lat="48.64245" lon="-2.46339">
        <ele>50.4</ele>
        <time>2020-07-27T07:47:29.640Z</time>
      </trkpt>
      <trkpt lat="48.64235" lon="-2.46337">
        <ele>50.7</ele>
        <time>2020-07-27T07:48:00.693Z</time>
      </trkpt>
      <trkpt lat="48.64225" lon="-2.46338">
        <ele>51.1</ele>
        <time>2020-07-27T07:48:36.077Z</time>
      </trkpt>
      <trkpt lat="48.64215" lon="-2.4634">
        <ele>51.7</ele>
        <time>2020-07-27T07:49:18.200Z</time>
      </trkpt>
      <trkpt lat="48.64205" lon="-2.46344">
        <ele>52.4</ele>
        <time>2020-07-27T07:50:04.016Z</time>
      </trkpt>
      <trkpt lat="48.64196" lon="-2.46351">
        <ele>52.9</ele>
        <time>2020-07-27T07:50:43.495Z</time>
      </trkpt>
      <trkpt lat="48.64188" lon="-2.46356">
        <ele>53.4</ele>
        <time>2020-07-27T07:51:19.212Z</time>
      </trkpt>
      <trkpt lat="48.6419" lon="-2.46371">
        <ele>53.3</ele>
        <time>2020-07-27T07:51:24.718Z</time>
      </trkpt>
      <trkpt lat="48.64191" lon="-2.46384">
        <ele>53.3</ele>
        <time>2020-07-27T07:51:44.088Z</time>
      </trkpt>
      <trkpt lat="48.64192" lon="-2.46398">
        <ele>53.5</ele>
        <time>2020-07-27T07:52:10.039Z</time>
      </trkpt>
      <trkpt lat="48.64191" lon="-2.46414">
        <ele>54</ele>
        <time>2020-07-27T07:52:50.850Z</time>
      </trkpt>
      <trkpt lat="48.6419" lon="-2.46429">
        <ele>54.2</ele>
        <time>2020-07-27T07:53:18.191Z</time>
      </trkpt>
      <trkpt lat="48.64186" lon="-2.46442">
        <ele>54.6</ele>
        <time>2020-07-27T07:53:52.795Z</time>
      </trkpt>
      <trkpt lat="48.64186" lon="-2.46454">
        <ele>54.6</ele>
        <time>2020-07-27T07:54:10.555Z</time>
      </trkpt>
      <trkpt lat="48.6419" lon="-2.46465">
        <ele>54.3</ele>
        <time>2020-07-27T07:54:13.903Z</time>
      </trkpt>
      <trkpt lat="48.6419" lon="-2.46481">
        <ele>54.3</ele>
        <time>2020-07-27T07:54:37.584Z</time>
      </trkpt>
      <trkpt lat="48.6419" lon="-2.46496">
        <ele>54.2</ele>
        <time>2020-07-27T07:54:42.967Z</time>
      </trkpt>
      <trkpt lat="48.6419" lon="-2.46512">
        <ele>54.3</ele>
        <time>2020-07-27T07:55:08.894Z</time>
      </trkpt>
      <trkpt lat="48.64188" lon="-2.46529">
        <ele>54.4</ele>
        <time>2020-07-27T07:55:36.680Z</time>
      </trkpt>
      <trkpt lat="48.64189" lon="-2.46543">
        <ele>54.3</ele>
        <time>2020-07-27T07:55:41.691Z</time>
      </trkpt>
      <trkpt lat="48.64189" lon="-2.46558">
        <ele>54.2</ele>
        <time>2020-07-27T07:55:47.074Z</time>
      </trkpt>
      <trkpt lat="48.64191" lon="-2.46572">
        <ele>54.1</ele>
        <time>2020-07-27T07:55:52.183Z</time>
      </trkpt>
      <trkpt lat="48.6419" lon="-2.46586">
        <ele>54.1</ele>
        <time>2020-07-27T07:56:13.024Z</time>
      </trkpt>
      <trkpt lat="48.64188" lon="-2.46604">
        <ele>54.2</ele>
        <time>2020-07-27T07:56:42.258Z</time>
      </trkpt>
      <trkpt lat="48.64188" lon="-2.46618">
        <ele>54.2</ele>
        <time>2020-07-27T07:57:02.978Z</time>
      </trkpt>
      <trkpt lat="48.64188" lon="-2.46632">
        <ele>54.2</ele>
        <time>2020-07-27T07:57:23.699Z</time>
      </trkpt>
      <trkpt lat="48.64185" lon="-2.46652">
        <ele>54.6</ele>
        <time>2020-07-27T07:58:05.300Z</time>
      </trkpt>
      <trkpt lat="48.64183" lon="-2.46669">
        <ele>55</ele>
        <time>2020-07-27T07:58:42.944Z</time>
      </trkpt>
      <trkpt lat="48.64183" lon="-2.46684">
        <ele>54.6</ele>
        <time>2020-07-27T07:58:46.785Z</time>
      </trkpt>
      <trkpt lat="48.64183" lon="-2.46698">
        <ele>54.6</ele>
        <time>2020-07-27T07:59:07.505Z</time>
      </trkpt>
      <trkpt lat="48.64182" lon="-2.46715">
        <ele>55.5</ele>
        <time>2020-07-27T08:00:02.393Z</time>
      </trkpt>
      <trkpt lat="48.64181" lon="-2.46731">
        <ele>55.7</ele>
        <time>2020-07-27T08:00:31.137Z</time>
      </trkpt>
      <trkpt lat="48.64181" lon="-2.46745">
        <ele>55.6</ele>
        <time>2020-07-27T08:00:36.114Z</time>
      </trkpt>
      <trkpt lat="48.64181" lon="-2.46762">
        <ele>55.5</ele>
        <time>2020-07-27T08:00:42.313Z</time>
      </trkpt>
      <trkpt lat="48.6418" lon="-2.46779">
        <ele>55.6</ele>
        <time>2020-07-27T08:01:09.806Z</time>
      </trkpt>
      <trkpt lat="48.64178" lon="-2.46794">
        <ele>55.7</ele>
        <time>2020-07-27T08:01:34.710Z</time>
      </trkpt>
      <trkpt lat="48.6418" lon="-2.46808">
        <ele>55.6</ele>
        <time>2020-07-27T08:01:39.818Z</time>
      </trkpt>
      <trkpt lat="48.64179" lon="-2.46826">
        <ele>55.9</ele>
        <time>2020-07-27T08:02:14.549Z</time>
      </trkpt>
      <trkpt lat="48.64178" lon="-2.46842">
        <ele>56.2</ele>
        <time>2020-07-27T08:02:46.638Z</time>
      </trkpt>
      <trkpt lat="48.64179" lon="-2.46856">
        <ele>56.1</ele>
        <time>2020-07-27T08:02:51.648Z</time>
      </trkpt>
      <trkpt lat="48.64181" lon="-2.46869">
        <ele>56.3</ele>
        <time>2020-07-27T08:03:16.582Z</time>
      </trkpt>
      <trkpt lat="48.6418" lon="-2.46886">
        <ele>56.9</ele>
        <time>2020-07-27T08:04:01.698Z</time>
      </trkpt>
      <trkpt lat="48.6418" lon="-2.46902">
        <ele>57</ele>
        <time>2020-07-27T08:04:27.624Z</time>
      </trkpt>
      <trkpt lat="48.64179" lon="-2.46923">
        <ele>57.2</ele>
        <time>2020-07-27T08:05:03.511Z</time>
      </trkpt>
      <trkpt lat="48.64178" lon="-2.4694">
        <ele>57.5</ele>
        <time>2020-07-27T08:05:36.909Z</time>
      </trkpt>
      <trkpt lat="48.64178" lon="-2.46955">
        <ele>57.6</ele>
        <time>2020-07-27T08:06:01.369Z</time>
      </trkpt>
      <trkpt lat="48.64178" lon="-2.46972">
        <ele>57.6</ele>
        <time>2020-07-27T08:06:26.530Z</time>
      </trkpt>
      <trkpt lat="48.64178" lon="-2.46987">
        <ele>57.6</ele>
        <time>2020-07-27T08:06:48.730Z</time>
      </trkpt>
      <trkpt lat="48.64176" lon="-2.47006">
        <ele>57.7</ele>
        <time>2020-07-27T08:07:19.416Z</time>
      </trkpt>
      <trkpt lat="48.64176" lon="-2.4702">
        <ele>57.6</ele>
        <time>2020-07-27T08:07:24.393Z</time>
      </trkpt>
      <trkpt lat="48.64175" lon="-2.47035">
        <ele>57.7</ele>
        <time>2020-07-27T08:07:48.965Z</time>
      </trkpt>
      <trkpt lat="48.64175" lon="-2.4705">
        <ele>57.7</ele>
        <time>2020-07-27T08:08:11.166Z</time>
      </trkpt>
      <trkpt lat="48.64174" lon="-2.47064">
        <ele>57.8</ele>
        <time>2020-07-27T08:08:34.283Z</time>
      </trkpt>
      <trkpt lat="48.64172" lon="-2.47083">
        <ele>57.8</ele>
        <time>2020-07-27T08:09:02.758Z</time>
      </trkpt>
      <trkpt lat="48.64171" lon="-2.47096">
        <ele>57.8</ele>
        <time>2020-07-27T08:09:22.128Z</time>
      </trkpt>
      <trkpt lat="48.6417" lon="-2.47112">
        <ele>57.8</ele>
        <time>2020-07-27T08:09:45.914Z</time>
      </trkpt>
      <trkpt lat="48.6417" lon="-2.47129">
        <ele>57.8</ele>
        <time>2020-07-27T08:10:11.074Z</time>
      </trkpt>
      <trkpt lat="48.64171" lon="-2.47147">
        <ele>57.7</ele>
        <time>2020-07-27T08:10:17.708Z</time>
      </trkpt>
      <trkpt lat="48.6417" lon="-2.47163">
        <ele>57.7</ele>
        <time>2020-07-27T08:10:41.494Z</time>
      </trkpt>
      <trkpt lat="48.6417" lon="-2.4718">
        <ele>57.8</ele>
        <time>2020-07-27T08:11:08.888Z</time>
      </trkpt>
      <trkpt lat="48.64169" lon="-2.47196">
        <ele>57.9</ele>
        <time>2020-07-27T08:11:34.920Z</time>
      </trkpt>
      <trkpt lat="48.6417" lon="-2.47212">
        <ele>57.3</ele>
        <time>2020-07-27T08:11:38.489Z</time>
      </trkpt>
      <trkpt lat="48.64169" lon="-2.47229">
        <ele>57</ele>
        <time>2020-07-27T08:11:43.514Z</time>
      </trkpt>
      <trkpt lat="48.64169" lon="-2.47244">
        <ele>57</ele>
        <time>2020-07-27T08:12:05.714Z</time>
      </trkpt>
      <trkpt lat="48.64167" lon="-2.47265">
        <ele>57</ele>
        <time>2020-07-27T08:12:37.116Z</time>
      </trkpt>
      <trkpt lat="48.64166" lon="-2.47285">
        <ele>57</ele>
        <time>2020-07-27T08:13:06.801Z</time>
      </trkpt>
      <trkpt lat="48.6417" lon="-2.47297">
        <ele>56.9</ele>
        <time>2020-07-27T08:13:11.551Z</time>
      </trkpt>
      <trkpt lat="48.64169" lon="-2.47315">
        <ele>56.6</ele>
        <time>2020-07-27T08:13:16.955Z</time>
      </trkpt>
      <trkpt lat="48.64168" lon="-2.47329">
        <ele>56.2</ele>
        <time>2020-07-27T08:13:20.473Z</time>
      </trkpt>
      <trkpt lat="48.64169" lon="-2.47345">
        <ele>55.6</ele>
        <time>2020-07-27T08:13:24.042Z</time>
      </trkpt>
      <trkpt lat="48.6417" lon="-2.47361">
        <ele>55</ele>
        <time>2020-07-27T08:13:27.612Z</time>
      </trkpt>
      <trkpt lat="48.64169" lon="-2.47375">
        <ele>54.5</ele>
        <time>2020-07-27T08:13:30.812Z</time>
      </trkpt>
      <trkpt lat="48.6416" lon="-2.47381">
        <ele>54.4</ele>
        <time>2020-07-27T08:13:36.148Z</time>
      </trkpt>
      <trkpt lat="48.6415" lon="-2.47383">
        <ele>54.4</ele>
        <time>2020-07-27T08:13:58.742Z</time>
      </trkpt>
      <trkpt lat="48.6414" lon="-2.47384">
        <ele>54.3</ele>
        <time>2020-07-27T08:14:04.193Z</time>
      </trkpt>
      <trkpt lat="48.64129" lon="-2.47387">
        <ele>54.1</ele>
        <time>2020-07-27T08:14:09.695Z</time>
      </trkpt>
      <trkpt lat="48.64118" lon="-2.47389">
        <ele>54</ele>
        <time>2020-07-27T08:14:15.799Z</time>
      </trkpt>
      <trkpt lat="48.64108" lon="-2.47391">
        <ele>53.9</ele>
        <time>2020-07-27T08:14:21.290Z</time>
      </trkpt>
      <trkpt lat="48.64099" lon="-2.47393">
        <ele>53.8</ele>
        <time>2020-07-27T08:14:26.172Z</time>
      </trkpt>
      <trkpt lat="48.64089" lon="-2.47397">
        <ele>53.7</ele>
        <time>2020-07-27T08:14:31.822Z</time>
      </trkpt>
      <trkpt lat="48.6408" lon="-2.47399">
        <ele>53.8</ele>
        <time>2020-07-27T08:14:54.479Z</time>
      </trkpt>
      <trkpt lat="48.6407" lon="-2.47402">
        <ele>54.2</ele>
        <time>2020-07-27T08:15:30.124Z</time>
      </trkpt>
      <trkpt lat="48.64066" lon="-2.47403">
        <ele>54.4</ele>
        <time>2020-07-27T08:15:45.933Z</time>
      </trkpt>
      <trkpt lat="48.64058" lon="-2.47407">
        <ele>54.9</ele>
        <time>2020-07-27T08:16:21.083Z</time>
      </trkpt>
      <trkpt lat="48.64049" lon="-2.47409">
        <ele>55.2</ele>
        <time>2020-07-27T08:16:50.277Z</time>
      </trkpt>
      <trkpt lat="48.64039" lon="-2.47415">
        <ele>55.6</ele>
        <time>2020-07-27T08:17:26.817Z</time>
      </trkpt>
      <trkpt lat="48.64028" lon="-2.47418">
        <ele>56</ele>
        <time>2020-07-27T08:18:04.061Z</time>
      </trkpt>
      <trkpt lat="48.64018" lon="-2.4742">
        <ele>56.3</ele>
        <time>2020-07-27T08:18:35.114Z</time>
      </trkpt>
      <trkpt lat="48.64008" lon="-2.47419">
        <ele>56.7</ele>
        <time>2020-07-27T08:19:10.498Z</time>
      </trkpt>
      <trkpt lat="48.63999" lon="-2.47423">
        <ele>57</ele>
        <time>2020-07-27T08:19:40.213Z</time>
      </trkpt>
      <trkpt lat="48.63998" lon="-2.4742">
        <ele>57.1</ele>
        <time>2020-07-27T08:19:48.635Z</time>
      </trkpt>
      <trkpt lat="48.63995" lon="-2.47422">
        <ele>57.2</ele>
        <time>2020-07-27T08:19:58.825Z</time>
      </trkpt>
      <trkpt lat="48.63985" lon="-2.47425">
        <ele>57.5</ele>
        <time>2020-07-27T08:20:30.086Z</time>
      </trkpt>
      <trkpt lat="48.63975" lon="-2.47428">
        <ele>57.9</ele>
        <time>2020-07-27T08:21:05.731Z</time>
      </trkpt>
      <trkpt lat="48.63965" lon="-2.47431">
        <ele>58.3</ele>
        <time>2020-07-27T08:21:41.376Z</time>
      </trkpt>
      <trkpt lat="48.63956" lon="-2.47435">
        <ele>58.6</ele>
        <time>2020-07-27T08:22:11.091Z</time>
      </trkpt>
      <trkpt lat="48.63946" lon="-2.47438">
        <ele>58.9</ele>
        <time>2020-07-27T08:22:42.352Z</time>
      </trkpt>
      <trkpt lat="48.63935" lon="-2.47438">
        <ele>59.1</ele>
        <time>2020-07-27T08:23:11.914Z</time>
      </trkpt>
      <trkpt lat="48.63925" lon="-2.4744">
        <ele>59.1</ele>
        <time>2020-07-27T08:23:34.507Z</time>
      </trkpt>
      <trkpt lat="48.63915" lon="-2.47443">
        <ele>59.2</ele>
        <time>2020-07-27T08:23:59.596Z</time>
      </trkpt>
      <trkpt lat="48.63905" lon="-2.47445">
        <ele>59.9</ele>
        <time>2020-07-27T08:24:44.853Z</time>
      </trkpt>
      <trkpt lat="48.63894" lon="-2.47448">
        <ele>60.5</ele>
        <time>2020-07-27T08:25:29.711Z</time>
      </trkpt>
      <trkpt lat="48.63885" lon="-2.47451">
        <ele>60.8</ele>
        <time>2020-07-27T08:25:59.123Z</time>
      </trkpt>
      <trkpt lat="48.63877" lon="-2.47457">
        <ele>60.6</ele>
        <time>2020-07-27T08:26:03.292Z</time>
      </trkpt>
      <trkpt lat="48.63866" lon="-2.4746">
        <ele>60.4</ele>
        <time>2020-07-27T08:26:08.793Z</time>
      </trkpt>
      <trkpt lat="48.63855" lon="-2.47463">
        <ele>60.3</ele>
        <time>2020-07-27T08:26:14.957Z</time>
      </trkpt>
      <trkpt lat="48.63845" lon="-2.47469">
        <ele>60</ele>
        <time>2020-07-27T08:26:19.684Z</time>
      </trkpt>
      <trkpt lat="48.63833" lon="-2.47476">
        <ele>60</ele>
        <time>2020-07-27T08:26:48.490Z</time>
      </trkpt>
      <trkpt lat="48.63822" lon="-2.47476">
        <ele>60</ele>
        <time>2020-07-27T08:27:13.129Z</time>
      </trkpt>
      <trkpt lat="48.63809" lon="-2.47467">
        <ele>60</ele>
        <time>2020-07-27T08:27:45.149Z</time>
      </trkpt>
      <trkpt lat="48.638" lon="-2.47458">
        <ele>60</ele>
        <time>2020-07-27T08:28:09.312Z</time>
      </trkpt>
      <trkpt lat="48.63792" lon="-2.47452">
        <ele>60</ele>
        <time>2020-07-27T08:28:29.311Z</time>
      </trkpt>
      <trkpt lat="48.6378" lon="-2.47437">
        <ele>60</ele>
        <time>2020-07-27T08:29:04.173Z</time>
      </trkpt>
      <trkpt lat="48.63774" lon="-2.47423">
        <ele>60.1</ele>
        <time>2020-07-27T08:29:31.109Z</time>
      </trkpt>
      <trkpt lat="48.63768" lon="-2.47408">
        <ele>60.7</ele>
        <time>2020-07-27T08:30:17.025Z</time>
      </trkpt>
      <trkpt lat="48.63762" lon="-2.47395">
        <ele>61.1</ele>
        <time>2020-07-27T08:30:53.114Z</time>
      </trkpt>
      <trkpt lat="48.63758" lon="-2.4738">
        <ele>60.8</ele>
        <time>2020-07-27T08:30:57.802Z</time>
      </trkpt>
      <trkpt lat="48.63756" lon="-2.47364">
        <ele>60</ele>
        <time>2020-07-27T08:31:01.446Z</time>
      </trkpt>
      <trkpt lat="48.63754" lon="-2.47349">
        <ele>59.1</ele>
        <time>2020-07-27T08:31:04.870Z</time>
      </trkpt>
      <trkpt lat="48.63755" lon="-2.47336">
        <ele>58.2</ele>
        <time>2020-07-27T08:31:07.799Z</time>
      </trkpt>
      <trkpt lat="48.63755" lon="-2.47333">
        <ele>58</ele>
        <time>2020-07-27T08:31:08.471Z</time>
      </trkpt>
      <trkpt lat="48.63747" lon="-2.47321">
        <ele>57.1</ele>
        <time>2020-07-27T08:31:12.285Z</time>
      </trkpt>
      <trkpt lat="48.63739" lon="-2.47306">
        <ele>56.4</ele>
        <time>2020-07-27T08:31:16.622Z</time>
      </trkpt>
      <trkpt lat="48.63726" lon="-2.47297">
        <ele>55.7</ele>
        <time>2020-07-27T08:31:21.744Z</time>
      </trkpt>
      <trkpt lat="48.63714" lon="-2.47299">
        <ele>53.7</ele>
        <time>2020-07-27T08:31:25.833Z</time>
      </trkpt>
      <trkpt lat="48.63704" lon="-2.47304">
        <ele>51.6</ele>
        <time>2020-07-27T08:31:29.399Z</time>
      </trkpt>
      <trkpt lat="48.63698" lon="-2.47315">
        <ele>49.8</ele>
        <time>2020-07-27T08:31:32.591Z</time>
      </trkpt>
      <trkpt lat="48.63699" lon="-2.47312">
        <ele>50.1</ele>
        <time>2020-07-27T08:31:51.774Z</time>
      </trkpt>
      <trkpt lat="48.63703" lon="-2.47324">
        <ele>51</ele>
        <time>2020-07-27T08:32:44.188Z</time>
      </trkpt>
      <trkpt lat="48.637" lon="-2.47337">
        <ele>49.7</ele>
        <time>2020-07-27T08:32:47.270Z</time>
      </trkpt>
      <trkpt lat="48.63701" lon="-2.47353">
        <ele>49</ele>
        <time>2020-07-27T08:32:50.584Z</time>
      </trkpt>
      <trkpt lat="48.63703" lon="-2.4736">
        <ele>48.2</ele>
        <time>2020-07-27T08:32:52.290Z</time>
      </trkpt>
      <trkpt lat="48.63705" lon="-2.4737">
        <ele>47.8</ele>
        <time>2020-07-27T08:32:54.584Z</time>
      </trkpt>
      <trkpt lat="48.63707" lon="-2.47385">
        <ele>47.4</ele>
        <time>2020-07-27T08:32:58.533Z</time>
      </trkpt>
      <trkpt lat="48.63707" lon="-2.47401">
        <ele>46.6</ele>
        <time>2020-07-27T08:33:02.113Z</time>
      </trkpt>
      <trkpt lat="48.6371" lon="-2.47416">
        <ele>45.3</ele>
        <time>2020-07-27T08:33:05.621Z</time>
      </trkpt>
      <trkpt lat="48.63717" lon="-2.47422">
        <ele>44.7</ele>
        <time>2020-07-27T08:33:08.345Z</time>
      </trkpt>
      <trkpt lat="48.63719" lon="-2.47424">
        <ele>44.7</ele>
        <time>2020-07-27T08:33:13.714Z</time>
      </trkpt>
      <trkpt lat="48.63702" lon="-2.47429">
        <ele>44.8</ele>
        <time>2020-07-27T08:33:54.671Z</time>
      </trkpt>
      <trkpt lat="48.63693" lon="-2.47432">
        <ele>42.8</ele>
        <time>2020-07-27T08:33:57.792Z</time>
      </trkpt>
      <trkpt lat="48.63694" lon="-2.47447">
        <ele>41</ele>
        <time>2020-07-27T08:34:01.166Z</time>
      </trkpt>
      <trkpt lat="48.63695" lon="-2.47462">
        <ele>39.7</ele>
        <time>2020-07-27T08:34:04.539Z</time>
      </trkpt>
      <trkpt lat="48.637" lon="-2.47475">
        <ele>39.9</ele>
        <time>2020-07-27T08:34:31.834Z</time>
      </trkpt>
      <trkpt lat="48.63703" lon="-2.47491">
        <ele>39</ele>
        <time>2020-07-27T08:34:35.556Z</time>
      </trkpt>
      <trkpt lat="48.63709" lon="-2.47502">
        <ele>40.1</ele>
        <time>2020-07-27T08:35:41.131Z</time>
      </trkpt>
      <trkpt lat="48.63713" lon="-2.47517">
        <ele>41.7</ele>
        <time>2020-07-27T08:37:13.479Z</time>
      </trkpt>
      <trkpt lat="48.63715" lon="-2.47533">
        <ele>41.9</ele>
        <time>2020-07-27T08:37:42.526Z</time>
      </trkpt>
      <trkpt lat="48.63718" lon="-2.47549">
        <ele>40.8</ele>
        <time>2020-07-27T08:37:46.248Z</time>
      </trkpt>
      <trkpt lat="48.63718" lon="-2.47567">
        <ele>39.2</ele>
        <time>2020-07-27T08:37:50.277Z</time>
      </trkpt>
      <trkpt lat="48.63718" lon="-2.47583">
        <ele>38.8</ele>
        <time>2020-07-27T08:37:54.474Z</time>
      </trkpt>
      <trkpt lat="48.63722" lon="-2.47596">
        <ele>39.4</ele>
        <time>2020-07-27T08:38:35.136Z</time>
      </trkpt>
      <trkpt lat="48.63723" lon="-2.47595">
        <ele>40.3</ele>
        <time>2020-07-27T08:38:45.491Z</time>
      </trkpt>
      <trkpt lat="48.63727" lon="-2.47596">
        <ele>41.4</ele>
        <time>2020-07-27T08:39:20.518Z</time>
      </trkpt>
      <trkpt lat="48.63731" lon="-2.4761">
        <ele>38.7</ele>
        <time>2020-07-27T08:39:23.931Z</time>
      </trkpt>
      <trkpt lat="48.63735" lon="-2.47623">
        <ele>38.3</ele>
        <time>2020-07-27T08:39:27.540Z</time>
      </trkpt>
      <trkpt lat="48.63737" lon="-2.47638">
        <ele>37.9</ele>
        <time>2020-07-27T08:39:31.488Z</time>
      </trkpt>
      <trkpt lat="48.63742" lon="-2.47648">
        <ele>39.6</ele>
        <time>2020-07-27T08:40:43.081Z</time>
      </trkpt>
      <trkpt lat="48.63747" lon="-2.47654">
        <ele>42</ele>
        <time>2020-07-27T08:41:38.211Z</time>
      </trkpt>
      <trkpt lat="48.63757" lon="-2.47657">
        <ele>45.9</ele>
        <time>2020-07-27T08:43:06.287Z</time>
      </trkpt>
      <trkpt lat="48.63752" lon="-2.47652">
        <ele>43.4</ele>
        <time>2020-07-27T08:43:08.317Z</time>
      </trkpt>
      <trkpt lat="48.63758" lon="-2.4766">
        <ele>46.4</ele>
        <time>2020-07-27T08:44:17.404Z</time>
      </trkpt>
      <trkpt lat="48.63757" lon="-2.47658">
        <ele>46.2</ele>
        <time>2020-07-27T08:44:17.966Z</time>
      </trkpt>
      <trkpt lat="48.6375" lon="-2.47652">
        <ele>43</ele>
        <time>2020-07-27T08:44:20.690Z</time>
      </trkpt>
      <trkpt lat="48.63744" lon="-2.47668">
        <ele>41.5</ele>
        <time>2020-07-27T08:44:24.807Z</time>
      </trkpt>
      <trkpt lat="48.63736" lon="-2.4768">
        <ele>39.2</ele>
        <time>2020-07-27T08:44:28.622Z</time>
      </trkpt>
      <trkpt lat="48.63737" lon="-2.47696">
        <ele>40.8</ele>
        <time>2020-07-27T08:46:00.376Z</time>
      </trkpt>
      <trkpt lat="48.63741" lon="-2.47709">
        <ele>42.2</ele>
        <time>2020-07-27T08:47:22.246Z</time>
      </trkpt>
      <trkpt lat="48.63745" lon="-2.47724">
        <ele>43.6</ele>
        <time>2020-07-27T08:48:51.424Z</time>
      </trkpt>
      <trkpt lat="48.6375" lon="-2.47735">
        <ele>45.1</ele>
        <time>2020-07-27T08:50:07.647Z</time>
      </trkpt>
      <trkpt lat="48.63755" lon="-2.47748">
        <ele>45.1</ele>
        <time>2020-07-27T08:50:29.911Z</time>
      </trkpt>
      <trkpt lat="48.63756" lon="-2.47761">
        <ele>44.9</ele>
        <time>2020-07-27T08:50:33.916Z</time>
      </trkpt>
      <trkpt lat="48.63758" lon="-2.47776">
        <ele>44.4</ele>
        <time>2020-07-27T08:50:37.524Z</time>
      </trkpt>
      <trkpt lat="48.63758" lon="-2.47794">
        <ele>47.4</ele>
        <time>2020-07-27T08:52:20.288Z</time>
      </trkpt>
      <trkpt lat="48.63757" lon="-2.47808">
        <ele>50</ele>
        <time>2020-07-27T08:53:40.682Z</time>
      </trkpt>
      <trkpt lat="48.63751" lon="-2.4782">
        <ele>50.1</ele>
        <time>2020-07-27T08:54:05.214Z</time>
      </trkpt>
      <trkpt lat="48.63749" lon="-2.47834">
        <ele>49.8</ele>
        <time>2020-07-27T08:54:09.210Z</time>
      </trkpt>
      <trkpt lat="48.6375" lon="-2.47848">
        <ele>50.5</ele>
        <time>2020-07-27T08:54:52.871Z</time>
      </trkpt>
      <trkpt lat="48.63752" lon="-2.47863">
        <ele>49.6</ele>
        <time>2020-07-27T08:54:56.295Z</time>
      </trkpt>
      <trkpt lat="48.63757" lon="-2.47874">
        <ele>48</ele>
        <time>2020-07-27T08:54:59.283Z</time>
      </trkpt>
      <trkpt lat="48.6376" lon="-2.47887">
        <ele>46.8</ele>
        <time>2020-07-27T08:55:02.365Z</time>
      </trkpt>
      <trkpt lat="48.63764" lon="-2.47899">
        <ele>46.3</ele>
        <time>2020-07-27T08:55:05.355Z</time>
      </trkpt>
      <trkpt lat="48.63764" lon="-2.47913">
        <ele>46.1</ele>
        <time>2020-07-27T08:55:09.713Z</time>
      </trkpt>
      <trkpt lat="48.63765" lon="-2.47927">
        <ele>46.9</ele>
        <time>2020-07-27T08:55:57.397Z</time>
      </trkpt>
      <trkpt lat="48.63764" lon="-2.47942">
        <ele>47.9</ele>
        <time>2020-07-27T08:56:55.639Z</time>
      </trkpt>
      <trkpt lat="48.63767" lon="-2.47957">
        <ele>47.5</ele>
        <time>2020-07-27T08:56:59.720Z</time>
      </trkpt>
      <trkpt lat="48.63773" lon="-2.47967">
        <ele>48.5</ele>
        <time>2020-07-27T08:57:58.617Z</time>
      </trkpt>
      <trkpt lat="48.63777" lon="-2.4798">
        <ele>49.9</ele>
        <time>2020-07-27T08:59:20.487Z</time>
      </trkpt>
      <trkpt lat="48.63775" lon="-2.47994">
        <ele>48.9</ele>
        <time>2020-07-27T08:59:23.692Z</time>
      </trkpt>
      <trkpt lat="48.63771" lon="-2.48004">
        <ele>45.3</ele>
        <time>2020-07-27T08:59:26.308Z</time>
      </trkpt>
      <trkpt lat="48.63772" lon="-2.48017">
        <ele>43.8</ele>
        <time>2020-07-27T08:59:29.237Z</time>
      </trkpt>
      <trkpt lat="48.6378" lon="-2.48025">
        <ele>47.7</ele>
        <time>2020-07-27T09:00:52.080Z</time>
      </trkpt>
      <trkpt lat="48.63788" lon="-2.48033">
        <ele>46.7</ele>
        <time>2020-07-27T09:00:55.327Z</time>
      </trkpt>
      <trkpt lat="48.63792" lon="-2.48044">
        <ele>45</ele>
        <time>2020-07-27T09:00:58.137Z</time>
      </trkpt>
      <trkpt lat="48.63792" lon="-2.48046">
        <ele>44.4</ele>
        <time>2020-07-27T09:00:58.585Z</time>
      </trkpt>
      <trkpt lat="48.63797" lon="-2.48059">
        <ele>43.1</ele>
        <time>2020-07-27T09:01:01.951Z</time>
      </trkpt>
      <trkpt lat="48.63797" lon="-2.48064">
        <ele>42.3</ele>
        <time>2020-07-27T09:01:03.070Z</time>
      </trkpt>
      <trkpt lat="48.63803" lon="-2.48077">
        <ele>42.1</ele>
        <time>2020-07-27T09:01:08.154Z</time>
      </trkpt>
      <trkpt lat="48.638" lon="-2.48091">
        <ele>38.6</ele>
        <time>2020-07-27T09:01:11.448Z</time>
      </trkpt>
      <trkpt lat="48.63805" lon="-2.48104">
        <ele>39.5</ele>
        <time>2020-07-27T09:02:04.460Z</time>
      </trkpt>
      <trkpt lat="48.63809" lon="-2.48117">
        <ele>38.8</ele>
        <time>2020-07-27T09:02:07.669Z</time>
      </trkpt>
      <trkpt lat="48.63813" lon="-2.4813">
        <ele>39.6</ele>
        <time>2020-07-27T09:02:55.591Z</time>
      </trkpt>
      <trkpt lat="48.63821" lon="-2.48133">
        <ele>40.8</ele>
        <time>2020-07-27T09:04:06.797Z</time>
      </trkpt>
      <trkpt lat="48.63823" lon="-2.48138">
        <ele>42</ele>
        <time>2020-07-27T09:04:40.165Z</time>
      </trkpt>
      <trkpt lat="48.6382" lon="-2.48151">
        <ele>41.4</ele>
        <time>2020-07-27T09:04:43.004Z</time>
      </trkpt>
      <trkpt lat="48.6382" lon="-2.48165">
        <ele>41.2</ele>
        <time>2020-07-27T09:04:47.362Z</time>
      </trkpt>
      <trkpt lat="48.63822" lon="-2.4818">
        <ele>39.7</ele>
        <time>2020-07-27T09:04:50.786Z</time>
      </trkpt>
      <trkpt lat="48.63825" lon="-2.48194">
        <ele>38.3</ele>
        <time>2020-07-27T09:04:54.080Z</time>
      </trkpt>
      <trkpt lat="48.63828" lon="-2.48208">
        <ele>37.1</ele>
        <time>2020-07-27T09:04:57.373Z</time>
      </trkpt>
      <trkpt lat="48.63829" lon="-2.48223">
        <ele>34.9</ele>
        <time>2020-07-27T09:05:00.747Z</time>
      </trkpt>
      <trkpt lat="48.63832" lon="-2.48236">
        <ele>35.3</ele>
        <time>2020-07-27T09:05:34.867Z</time>
      </trkpt>
      <trkpt lat="48.63833" lon="-2.48248">
        <ele>35.2</ele>
        <time>2020-07-27T09:05:39.073Z</time>
      </trkpt>
      <trkpt lat="48.63838" lon="-2.4826">
        <ele>34.9</ele>
        <time>2020-07-27T09:05:43.018Z</time>
      </trkpt>
      <trkpt lat="48.63845" lon="-2.4827">
        <ele>36.1</ele>
        <time>2020-07-27T09:06:56.822Z</time>
      </trkpt>
      <trkpt lat="48.63852" lon="-2.48265">
        <ele>39.8</ele>
        <time>2020-07-27T09:08:03.697Z</time>
      </trkpt>
      <trkpt lat="48.63861" lon="-2.4826">
        <ele>44</ele>
        <time>2020-07-27T09:09:26.526Z</time>
      </trkpt>
      <trkpt lat="48.63868" lon="-2.48256">
        <ele>41.8</ele>
        <time>2020-07-27T09:09:29.060Z</time>
      </trkpt>
      <trkpt lat="48.63869" lon="-2.48266">
        <ele>41.6</ele>
        <time>2020-07-27T09:09:31.934Z</time>
      </trkpt>
      <trkpt lat="48.63866" lon="-2.48271">
        <ele>42.4</ele>
        <time>2020-07-27T09:10:10.490Z</time>
      </trkpt>
      <trkpt lat="48.6387" lon="-2.4827">
        <ele>41</ele>
        <time>2020-07-27T09:10:11.863Z</time>
      </trkpt>
      <trkpt lat="48.63868" lon="-2.48275">
        <ele>41.6</ele>
        <time>2020-07-27T09:10:45.230Z</time>
      </trkpt>
      <trkpt lat="48.63867" lon="-2.48289">
        <ele>41.5</ele>
        <time>2020-07-27T09:10:50.241Z</time>
      </trkpt>
      <trkpt lat="48.63868" lon="-2.48302">
        <ele>40.5</ele>
        <time>2020-07-27T09:10:53.169Z</time>
      </trkpt>
      <trkpt lat="48.63871" lon="-2.48296">
        <ele>39.7</ele>
        <time>2020-07-27T09:10:54.853Z</time>
      </trkpt>
      <trkpt lat="48.63874" lon="-2.48282">
        <ele>39.2</ele>
        <time>2020-07-27T09:10:58.265Z</time>
      </trkpt>
      <trkpt lat="48.6387" lon="-2.48268">
        <ele>41</ele>
        <time>2020-07-27T09:12:25.342Z</time>
      </trkpt>
      <trkpt lat="48.6387" lon="-2.48256">
        <ele>41.4</ele>
        <time>2020-07-27T09:12:56.489Z</time>
      </trkpt>
      <trkpt lat="48.63869" lon="-2.48242">
        <ele>42</ele>
        <time>2020-07-27T09:13:36.753Z</time>
      </trkpt>
      <trkpt lat="48.63866" lon="-2.48229">
        <ele>43.5</ele>
        <time>2020-07-27T09:14:55.366Z</time>
      </trkpt>
      <trkpt lat="48.63863" lon="-2.48217">
        <ele>45</ele>
        <time>2020-07-27T09:16:08.613Z</time>
      </trkpt>
      <trkpt lat="48.63858" lon="-2.48205">
        <ele>45.5</ele>
        <time>2020-07-27T09:16:46.148Z</time>
      </trkpt>
      <trkpt lat="48.63855" lon="-2.48191">
        <ele>46</ele>
        <time>2020-07-27T09:17:24.594Z</time>
      </trkpt>
      <trkpt lat="48.63855" lon="-2.48174">
        <ele>47.8</ele>
        <time>2020-07-27T09:19:01.647Z</time>
      </trkpt>
      <trkpt lat="48.63864" lon="-2.48167">
        <ele>49.5</ele>
        <time>2020-07-27T09:20:29.071Z</time>
      </trkpt>
      <trkpt lat="48.63875" lon="-2.48164">
        <ele>48.3</ele>
        <time>2020-07-27T09:20:32.856Z</time>
      </trkpt>
      <trkpt lat="48.63883" lon="-2.48155">
        <ele>48.4</ele>
        <time>2020-07-27T09:20:57.443Z</time>
      </trkpt>
      <trkpt lat="48.6389" lon="-2.48149">
        <ele>48.6</ele>
        <time>2020-07-27T09:21:20.776Z</time>
      </trkpt>
      <trkpt lat="48.63898" lon="-2.48142">
        <ele>50.5</ele>
        <time>2020-07-27T09:22:40.613Z</time>
      </trkpt>
      <trkpt lat="48.63907" lon="-2.48149">
        <ele>50.5</ele>
        <time>2020-07-27T09:23:03.279Z</time>
      </trkpt>
      <trkpt lat="48.63912" lon="-2.48138">
        <ele>52.6</ele>
        <time>2020-07-27T09:24:19.500Z</time>
      </trkpt>
      <trkpt lat="48.63921" lon="-2.48133">
        <ele>54.1</ele>
        <time>2020-07-27T09:25:42.329Z</time>
      </trkpt>
      <trkpt lat="48.6393" lon="-2.48128">
        <ele>55.9</ele>
        <time>2020-07-27T09:27:05.158Z</time>
      </trkpt>
      <trkpt lat="48.63941" lon="-2.48129">
        <ele>57.7</ele>
        <time>2020-07-27T09:28:40.363Z</time>
      </trkpt>
      <trkpt lat="48.63951" lon="-2.48129">
        <ele>58.7</ele>
        <time>2020-07-27T09:29:38.611Z</time>
      </trkpt>
      <trkpt lat="48.63959" lon="-2.48131">
        <ele>59.2</ele>
        <time>2020-07-27T09:30:12.996Z</time>
      </trkpt>
      <trkpt lat="48.63961" lon="-2.48146">
        <ele>58.1</ele>
        <time>2020-07-27T09:30:16.420Z</time>
      </trkpt>
      <trkpt lat="48.63962" lon="-2.48142">
        <ele>58.8</ele>
        <time>2020-07-27T09:30:40.835Z</time>
      </trkpt>
      <trkpt lat="48.63965" lon="-2.4813">
        <ele>59.5</ele>
        <time>2020-07-27T09:31:23.047Z</time>
      </trkpt>
      <trkpt lat="48.63972" lon="-2.48137">
        <ele>60</ele>
        <time>2020-07-27T09:31:58.111Z</time>
      </trkpt>
      <trkpt lat="48.63979" lon="-2.48145">
        <ele>59.3</ele>
        <time>2020-07-27T09:32:01.082Z</time>
      </trkpt>
      <trkpt lat="48.63988" lon="-2.48153">
        <ele>58.4</ele>
        <time>2020-07-27T09:32:04.616Z</time>
      </trkpt>
      <trkpt lat="48.63995" lon="-2.48162">
        <ele>57.5</ele>
        <time>2020-07-27T09:32:07.727Z</time>
      </trkpt>
      <trkpt lat="48.64003" lon="-2.4817">
        <ele>56.6</ele>
        <time>2020-07-27T09:32:10.974Z</time>
      </trkpt>
      <trkpt lat="48.64011" lon="-2.48176">
        <ele>55.7</ele>
        <time>2020-07-27T09:32:13.998Z</time>
      </trkpt>
      <trkpt lat="48.6402" lon="-2.48181">
        <ele>55.1</ele>
        <time>2020-07-27T09:32:17.067Z</time>
      </trkpt>
      <trkpt lat="48.6403" lon="-2.48187">
        <ele>54.7</ele>
        <time>2020-07-27T09:32:21.365Z</time>
      </trkpt>
      <trkpt lat="48.64039" lon="-2.48193">
        <ele>54.9</ele>
        <time>2020-07-27T09:32:48.435Z</time>
      </trkpt>
      <trkpt lat="48.64048" lon="-2.48198">
        <ele>55.2</ele>
        <time>2020-07-27T09:33:18.538Z</time>
      </trkpt>
      <trkpt lat="48.64057" lon="-2.48204">
        <ele>55.3</ele>
        <time>2020-07-27T09:33:42.828Z</time>
      </trkpt>
      <trkpt lat="48.64066" lon="-2.4821">
        <ele>54.9</ele>
        <time>2020-07-27T09:33:46.628Z</time>
      </trkpt>
      <trkpt lat="48.64075" lon="-2.48217">
        <ele>54.8</ele>
        <time>2020-07-27T09:33:52.139Z</time>
      </trkpt>
      <trkpt lat="48.64084" lon="-2.48225">
        <ele>54.7</ele>
        <time>2020-07-27T09:33:57.847Z</time>
      </trkpt>
      <trkpt lat="48.64093" lon="-2.48232">
        <ele>53.5</ele>
        <time>2020-07-27T09:34:01.274Z</time>
      </trkpt>
      <trkpt lat="48.64102" lon="-2.48238">
        <ele>52.7</ele>
        <time>2020-07-27T09:34:04.604Z</time>
      </trkpt>
      <trkpt lat="48.64112" lon="-2.48244">
        <ele>52.2</ele>
        <time>2020-07-27T09:34:08.544Z</time>
      </trkpt>
      <trkpt lat="48.6412" lon="-2.48251">
        <ele>51.6</ele>
        <time>2020-07-27T09:34:11.449Z</time>
      </trkpt>
      <trkpt lat="48.64128" lon="-2.48256">
        <ele>50.9</ele>
        <time>2020-07-27T09:34:14.381Z</time>
      </trkpt>
      <trkpt lat="48.64136" lon="-2.48262">
        <ele>50.5</ele>
        <time>2020-07-27T09:34:17.701Z</time>
      </trkpt>
      <trkpt lat="48.64144" lon="-2.48269">
        <ele>50.3</ele>
        <time>2020-07-27T09:34:22.053Z</time>
      </trkpt>
      <trkpt lat="48.64151" lon="-2.48279">
        <ele>49.9</ele>
        <time>2020-07-27T09:34:25.741Z</time>
      </trkpt>
      <trkpt lat="48.64159" lon="-2.4829">
        <ele>49.7</ele>
        <time>2020-07-27T09:34:31.023Z</time>
      </trkpt>
      <trkpt lat="48.64166" lon="-2.483">
        <ele>50</ele>
        <time>2020-07-27T09:35:01.198Z</time>
      </trkpt>
      <trkpt lat="48.64173" lon="-2.48311">
        <ele>49.1</ele>
        <time>2020-07-27T09:35:04.615Z</time>
      </trkpt>
      <trkpt lat="48.6418" lon="-2.48321">
        <ele>48.3</ele>
        <time>2020-07-27T09:35:07.875Z</time>
      </trkpt>
      <trkpt lat="48.64187" lon="-2.48332">
        <ele>47.7</ele>
        <time>2020-07-27T09:35:11.186Z</time>
      </trkpt>
      <trkpt lat="48.64194" lon="-2.48342">
        <ele>48.3</ele>
        <time>2020-07-27T09:35:52.201Z</time>
      </trkpt>
      <trkpt lat="48.64202" lon="-2.48352">
        <ele>47.8</ele>
        <time>2020-07-27T09:35:55.944Z</time>
      </trkpt>
      <trkpt lat="48.64209" lon="-2.48358">
        <ele>47.6</ele>
        <time>2020-07-27T09:35:59.597Z</time>
      </trkpt>
      <trkpt lat="48.64218" lon="-2.48363">
        <ele>47.8</ele>
        <time>2020-07-27T09:36:26.144Z</time>
      </trkpt>
      <trkpt lat="48.64222" lon="-2.48369">
        <ele>48</ele>
        <time>2020-07-27T09:36:44.840Z</time>
      </trkpt>
      <trkpt lat="48.64218" lon="-2.48374">
        <ele>47.5</ele>
        <time>2020-07-27T09:36:46.597Z</time>
      </trkpt>
      <trkpt lat="48.64217" lon="-2.48386">
        <ele>47.1</ele>
        <time>2020-07-27T09:36:49.434Z</time>
      </trkpt>
      <trkpt lat="48.64213" lon="-2.484">
        <ele>45.8</ele>
        <time>2020-07-27T09:36:52.847Z</time>
      </trkpt>
      <trkpt lat="48.64211" lon="-2.48413">
        <ele>44.3</ele>
        <time>2020-07-27T09:36:55.833Z</time>
      </trkpt>
      <trkpt lat="48.6421" lon="-2.48426">
        <ele>43.6</ele>
        <time>2020-07-27T09:36:58.762Z</time>
      </trkpt>
      <trkpt lat="48.64208" lon="-2.48439">
        <ele>43.1</ele>
        <time>2020-07-27T09:37:01.722Z</time>
      </trkpt>
      <trkpt lat="48.64206" lon="-2.48454">
        <ele>43</ele>
        <time>2020-07-27T09:37:07.229Z</time>
      </trkpt>
      <trkpt lat="48.64205" lon="-2.48469">
        <ele>43.4</ele>
        <time>2020-07-27T09:37:42.523Z</time>
      </trkpt>
      <trkpt lat="48.64204" lon="-2.48483">
        <ele>43.5</ele>
        <time>2020-07-27T09:38:05.639Z</time>
      </trkpt>
      <trkpt lat="48.64201" lon="-2.48494">
        <ele>43.3</ele>
        <time>2020-07-27T09:38:09.187Z</time>
      </trkpt>
      <trkpt lat="48.64201" lon="-2.48502">
        <ele>43.5</ele>
        <time>2020-07-27T09:38:27.307Z</time>
      </trkpt>
      <trkpt lat="48.64202" lon="-2.48516">
        <ele>43.7</ele>
        <time>2020-07-27T09:38:53.257Z</time>
      </trkpt>
      <trkpt lat="48.64197" lon="-2.48523">
        <ele>43.2</ele>
        <time>2020-07-27T09:38:55.564Z</time>
      </trkpt>
      <trkpt lat="48.64191" lon="-2.48534">
        <ele>41.5</ele>
        <time>2020-07-27T09:38:58.756Z</time>
      </trkpt>
      <trkpt lat="48.64185" lon="-2.48543">
        <ele>39.8</ele>
        <time>2020-07-27T09:39:01.617Z</time>
      </trkpt>
      <trkpt lat="48.6418" lon="-2.48546">
        <ele>38.7</ele>
        <time>2020-07-27T09:39:03.438Z</time>
      </trkpt>
      <trkpt lat="48.64178" lon="-2.48549">
        <ele>38.5</ele>
        <time>2020-07-27T09:39:04.392Z</time>
      </trkpt>
      <trkpt lat="48.64185" lon="-2.48555">
        <ele>40.6</ele>
        <time>2020-07-27T09:40:13.894Z</time>
      </trkpt>
      <trkpt lat="48.64193" lon="-2.48546">
        <ele>42</ele>
        <time>2020-07-27T09:41:40.014Z</time>
      </trkpt>
      <trkpt lat="48.642" lon="-2.48537">
        <ele>43.2</ele>
        <time>2020-07-27T09:42:56.295Z</time>
      </trkpt>
      <trkpt lat="48.64207" lon="-2.48542">
        <ele>43.8</ele>
        <time>2020-07-27T09:43:33.278Z</time>
      </trkpt>
      <trkpt lat="48.64209" lon="-2.48554">
        <ele>43.6</ele>
        <time>2020-07-27T09:43:37.009Z</time>
      </trkpt>
      <trkpt lat="48.64216" lon="-2.48562">
        <ele>43</ele>
        <time>2020-07-27T09:43:39.979Z</time>
      </trkpt>
      <trkpt lat="48.64219" lon="-2.48575">
        <ele>41</ele>
        <time>2020-07-27T09:43:43.060Z</time>
      </trkpt>
      <trkpt lat="48.6422" lon="-2.48588">
        <ele>38.2</ele>
        <time>2020-07-27T09:43:45.989Z</time>
      </trkpt>
      <trkpt lat="48.64229" lon="-2.48586">
        <ele>39.6</ele>
        <time>2020-07-27T09:45:04.578Z</time>
      </trkpt>
      <trkpt lat="48.64238" lon="-2.48587">
        <ele>39.1</ele>
        <time>2020-07-27T09:45:07.639Z</time>
      </trkpt>
      <trkpt lat="48.64248" lon="-2.48593">
        <ele>37.9</ele>
        <time>2020-07-27T09:45:11.282Z</time>
      </trkpt>
      <trkpt lat="48.64254" lon="-2.48605">
        <ele>37.6</ele>
        <time>2020-07-27T09:45:15.546Z</time>
      </trkpt>
      <trkpt lat="48.64262" lon="-2.48596">
        <ele>39.6</ele>
        <time>2020-07-27T09:46:41.666Z</time>
      </trkpt>
      <trkpt lat="48.6427" lon="-2.48591">
        <ele>40.8</ele>
        <time>2020-07-27T09:47:56.443Z</time>
      </trkpt>
      <trkpt lat="48.64275" lon="-2.48599">
        <ele>42.2</ele>
        <time>2020-07-27T09:48:59.305Z</time>
      </trkpt>
      <trkpt lat="48.64272" lon="-2.48615">
        <ele>42.1</ele>
        <time>2020-07-27T09:49:05.353Z</time>
      </trkpt>
      <trkpt lat="48.64275" lon="-2.48606">
        <ele>42.7</ele>
        <time>2020-07-27T09:49:40.731Z</time>
      </trkpt>
      <trkpt lat="48.64276" lon="-2.48592">
        <ele>41.7</ele>
        <time>2020-07-27T09:49:43.882Z</time>
      </trkpt>
      <trkpt lat="48.64279" lon="-2.48582">
        <ele>41.2</ele>
        <time>2020-07-27T09:49:46.339Z</time>
      </trkpt>
      <trkpt lat="48.64288" lon="-2.48586">
        <ele>42</ele>
        <time>2020-07-27T09:50:34.125Z</time>
      </trkpt>
      <trkpt lat="48.64297" lon="-2.48589">
        <ele>42.9</ele>
        <time>2020-07-27T09:51:26.607Z</time>
      </trkpt>
      <trkpt lat="48.64307" lon="-2.48591">
        <ele>43.5</ele>
        <time>2020-07-27T09:52:08.730Z</time>
      </trkpt>
      <trkpt lat="48.64317" lon="-2.48595">
        <ele>43.5</ele>
        <time>2020-07-27T09:52:31.897Z</time>
      </trkpt>
      <trkpt lat="48.64326" lon="-2.48598">
        <ele>43.3</ele>
        <time>2020-07-27T09:52:36.235Z</time>
      </trkpt>
      <trkpt lat="48.64335" lon="-2.48596">
        <ele>42.8</ele>
        <time>2020-07-27T09:52:39.331Z</time>
      </trkpt>
      <trkpt lat="48.64345" lon="-2.48594">
        <ele>42</ele>
        <time>2020-07-27T09:52:42.747Z</time>
      </trkpt>
      <trkpt lat="48.64356" lon="-2.48596">
        <ele>41</ele>
        <time>2020-07-27T09:52:46.499Z</time>
      </trkpt>
      <trkpt lat="48.64365" lon="-2.48601">
        <ele>40.3</ele>
        <time>2020-07-27T09:52:49.746Z</time>
      </trkpt>
      <trkpt lat="48.64373" lon="-2.48609">
        <ele>39.7</ele>
        <time>2020-07-27T09:52:52.816Z</time>
      </trkpt>
      <trkpt lat="48.64382" lon="-2.48616">
        <ele>38.8</ele>
        <time>2020-07-27T09:52:56.243Z</time>
      </trkpt>
      <trkpt lat="48.6439" lon="-2.48619">
        <ele>38.4</ele>
        <time>2020-07-27T09:52:59.207Z</time>
      </trkpt>
      <trkpt lat="48.64399" lon="-2.48619">
        <ele>40.3</ele>
        <time>2020-07-27T09:54:16.962Z</time>
      </trkpt>
      <trkpt lat="48.64407" lon="-2.48611">
        <ele>42.9</ele>
        <time>2020-07-27T09:55:39.802Z</time>
      </trkpt>
      <trkpt lat="48.64411" lon="-2.48611">
        <ele>43.8</ele>
        <time>2020-07-27T09:56:14.360Z</time>
      </trkpt>
      <trkpt lat="48.6442" lon="-2.48618">
        <ele>44.6</ele>
        <time>2020-07-27T09:57:03.312Z</time>
      </trkpt>
      <trkpt lat="48.64426" lon="-2.48628">
        <ele>44.4</ele>
        <time>2020-07-27T09:57:07.478Z</time>
      </trkpt>
      <trkpt lat="48.64433" lon="-2.48635">
        <ele>44.7</ele>
        <time>2020-07-27T09:57:35.423Z</time>
      </trkpt>
      <trkpt lat="48.64441" lon="-2.48643">
        <ele>45.3</ele>
        <time>2020-07-27T09:58:16.349Z</time>
      </trkpt>
      <trkpt lat="48.64447" lon="-2.48654">
        <ele>44.9</ele>
        <time>2020-07-27T09:58:19.930Z</time>
      </trkpt>
      <trkpt lat="48.64445" lon="-2.48661">
        <ele>44.9</ele>
        <time>2020-07-27T09:58:31.217Z</time>
      </trkpt>
      <trkpt lat="48.64448" lon="-2.48651">
        <ele>44.8</ele>
        <time>2020-07-27T09:58:34.974Z</time>
      </trkpt>
      <trkpt lat="48.64451" lon="-2.48638">
        <ele>45.6</ele>
        <time>2020-07-27T09:59:22.392Z</time>
      </trkpt>
      <trkpt lat="48.64457" lon="-2.48628">
        <ele>46.6</ele>
        <time>2020-07-27T10:00:21.291Z</time>
      </trkpt>
      <trkpt lat="48.64465" lon="-2.48618">
        <ele>48.2</ele>
        <time>2020-07-27T10:01:50.932Z</time>
      </trkpt>
      <trkpt lat="48.64475" lon="-2.48615">
        <ele>48.2</ele>
        <time>2020-07-27T10:02:13.766Z</time>
      </trkpt>
      <trkpt lat="48.64484" lon="-2.48612">
        <ele>45.5</ele>
        <time>2020-07-27T10:02:16.887Z</time>
      </trkpt>
      <trkpt lat="48.64487" lon="-2.48607">
        <ele>44.7</ele>
        <time>2020-07-27T10:02:18.398Z</time>
      </trkpt>
      <trkpt lat="48.6449" lon="-2.48604">
        <ele>43.7</ele>
        <time>2020-07-27T10:02:19.616Z</time>
      </trkpt>
      <trkpt lat="48.64494" lon="-2.48592">
        <ele>43.1</ele>
        <time>2020-07-27T10:02:22.623Z</time>
      </trkpt>
      <trkpt lat="48.64493" lon="-2.48577">
        <ele>43.8</ele>
        <time>2020-07-27T10:03:07.612Z</time>
      </trkpt>
      <trkpt lat="48.64494" lon="-2.48562">
        <ele>44.2</ele>
        <time>2020-07-27T10:03:42.905Z</time>
      </trkpt>
      <trkpt lat="48.64496" lon="-2.48548">
        <ele>43.9</ele>
        <time>2020-07-27T10:03:46.900Z</time>
      </trkpt>
      <trkpt lat="48.64497" lon="-2.48534">
        <ele>43.5</ele>
        <time>2020-07-27T10:03:50.418Z</time>
      </trkpt>
      <trkpt lat="48.64496" lon="-2.4852">
        <ele>43.2</ele>
        <time>2020-07-27T10:03:54.323Z</time>
      </trkpt>
      <trkpt lat="48.64494" lon="-2.48506">
        <ele>43.1</ele>
        <time>2020-07-27T10:03:59.431Z</time>
      </trkpt>
      <trkpt lat="48.6449" lon="-2.48491">
        <ele>42.3</ele>
        <time>2020-07-27T10:04:03.051Z</time>
      </trkpt>
      <trkpt lat="48.64485" lon="-2.4848">
        <ele>42.7</ele>
        <time>2020-07-27T10:04:36.578Z</time>
      </trkpt>
      <trkpt lat="48.64481" lon="-2.48472">
        <ele>43.4</ele>
        <time>2020-07-27T10:05:17.418Z</time>
      </trkpt>
      <trkpt lat="48.64474" lon="-2.48463">
        <ele>45.9</ele>
        <time>2020-07-27T10:06:36.770Z</time>
      </trkpt>
      <trkpt lat="48.64468" lon="-2.4845">
        <ele>45.6</ele>
        <time>2020-07-27T10:06:41.337Z</time>
      </trkpt>
      <trkpt lat="48.64465" lon="-2.48436">
        <ele>45.4</ele>
        <time>2020-07-27T10:06:45.974Z</time>
      </trkpt>
      <trkpt lat="48.64465" lon="-2.4842">
        <ele>45.1</ele>
        <time>2020-07-27T10:06:50.595Z</time>
      </trkpt>
      <trkpt lat="48.64465" lon="-2.48406">
        <ele>44.8</ele>
        <time>2020-07-27T10:06:54.470Z</time>
      </trkpt>
      <trkpt lat="48.64464" lon="-2.48391">
        <ele>45.1</ele>
        <time>2020-07-27T10:07:25.282Z</time>
      </trkpt>
      <trkpt lat="48.64461" lon="-2.48377">
        <ele>44.8</ele>
        <time>2020-07-27T10:07:29.423Z</time>
      </trkpt>
      <trkpt lat="48.64455" lon="-2.48366">
        <ele>46.1</ele>
        <time>2020-07-27T10:08:50.847Z</time>
      </trkpt>
      <trkpt lat="48.64452" lon="-2.4835">
        <ele>44.9</ele>
        <time>2020-07-27T10:08:54.568Z</time>
      </trkpt>
      <trkpt lat="48.64447" lon="-2.4834">
        <ele>45.4</ele>
        <time>2020-07-27T10:09:29.379Z</time>
      </trkpt>
      <trkpt lat="48.64445" lon="-2.48326">
        <ele>44.3</ele>
        <time>2020-07-27T10:09:32.584Z</time>
      </trkpt>
      <trkpt lat="48.64438" lon="-2.48314">
        <ele>43</ele>
        <time>2020-07-27T10:09:36.166Z</time>
      </trkpt>
      <trkpt lat="48.64431" lon="-2.48304">
        <ele>43</ele>
        <time>2020-07-27T10:09:57.726Z</time>
      </trkpt>
      <trkpt lat="48.64425" lon="-2.48292">
        <ele>43</ele>
        <time>2020-07-27T10:10:19.998Z</time>
      </trkpt>
      <trkpt lat="48.64423" lon="-2.48277">
        <ele>42.4</ele>
        <time>2020-07-27T10:10:23.319Z</time>
      </trkpt>
      <trkpt lat="48.64421" lon="-2.48264">
        <ele>42.7</ele>
        <time>2020-07-27T10:10:52.013Z</time>
      </trkpt>
      <trkpt lat="48.64415" lon="-2.48254">
        <ele>44.2</ele>
        <time>2020-07-27T10:12:09.121Z</time>
      </trkpt>
      <trkpt lat="48.64407" lon="-2.48253">
        <ele>44.5</ele>
        <time>2020-07-27T10:12:36.460Z</time>
      </trkpt>
      <trkpt lat="48.64397" lon="-2.48254">
        <ele>45</ele>
        <time>2020-07-27T10:13:15.682Z</time>
      </trkpt>
      <trkpt lat="48.64387" lon="-2.48256">
        <ele>45.3</ele>
        <time>2020-07-27T10:13:46.735Z</time>
      </trkpt>
      <trkpt lat="48.64379" lon="-2.48248">
        <ele>43.6</ele>
        <time>2020-07-27T10:13:49.982Z</time>
      </trkpt>
      <trkpt lat="48.6437" lon="-2.48247">
        <ele>42.8</ele>
        <time>2020-07-27T10:13:53.038Z</time>
      </trkpt>
      <trkpt lat="48.64364" lon="-2.48239">
        <ele>40.7</ele>
        <time>2020-07-27T10:13:55.746Z</time>
      </trkpt>
      <trkpt lat="48.64361" lon="-2.48224">
        <ele>37.3</ele>
        <time>2020-07-27T10:13:59.253Z</time>
      </trkpt>
      <trkpt lat="48.64356" lon="-2.48208">
        <ele>36</ele>
        <time>2020-07-27T10:14:03.214Z</time>
      </trkpt>
      <trkpt lat="48.64354" lon="-2.48194">
        <ele>34.6</ele>
        <time>2020-07-27T10:14:06.419Z</time>
      </trkpt>
      <trkpt lat="48.64352" lon="-2.48181">
        <ele>37.8</ele>
        <time>2020-07-27T10:15:22.614Z</time>
      </trkpt>
      <trkpt lat="48.64357" lon="-2.48168">
        <ele>41.2</ele>
        <time>2020-07-27T10:16:48.480Z</time>
      </trkpt>
      <trkpt lat="48.64366" lon="-2.48162">
        <ele>41.6</ele>
        <time>2020-07-27T10:17:23.588Z</time>
      </trkpt>
      <trkpt lat="48.64374" lon="-2.48153">
        <ele>41.3</ele>
        <time>2020-07-27T10:17:27.866Z</time>
      </trkpt>
      <trkpt lat="48.64378" lon="-2.48141">
        <ele>42.5</ele>
        <time>2020-07-27T10:18:44.591Z</time>
      </trkpt>
      <trkpt lat="48.64379" lon="-2.48129">
        <ele>42.4</ele>
        <time>2020-07-27T10:18:48.796Z</time>
      </trkpt>
      <trkpt lat="48.64376" lon="-2.48114">
        <ele>42.4</ele>
        <time>2020-07-27T10:19:11.990Z</time>
      </trkpt>
      <trkpt lat="48.64375" lon="-2.48101">
        <ele>42.8</ele>
        <time>2020-07-27T10:19:45.048Z</time>
      </trkpt>
      <trkpt lat="48.64372" lon="-2.48088">
        <ele>43.5</ele>
        <time>2020-07-27T10:20:28.319Z</time>
      </trkpt>
      <trkpt lat="48.64371" lon="-2.48074">
        <ele>44</ele>
        <time>2020-07-27T10:21:05.674Z</time>
      </trkpt>
      <trkpt lat="48.64369" lon="-2.48059">
        <ele>44.5</ele>
        <time>2020-07-27T10:21:45.132Z</time>
      </trkpt>
      <trkpt lat="48.64369" lon="-2.48045">
        <ele>44.5</ele>
        <time>2020-07-27T10:22:05.851Z</time>
      </trkpt>
      <trkpt lat="48.6437" lon="-2.48029">
        <ele>44.2</ele>
        <time>2020-07-27T10:22:10.499Z</time>
      </trkpt>
      <trkpt lat="48.6437" lon="-2.48013">
        <ele>45.6</ele>
        <time>2020-07-27T10:23:40.524Z</time>
      </trkpt>
      <trkpt lat="48.64372" lon="-2.47998">
        <ele>46.7</ele>
        <time>2020-07-27T10:24:44.937Z</time>
      </trkpt>
      <trkpt lat="48.64374" lon="-2.47984">
        <ele>48.9</ele>
        <time>2020-07-27T10:26:06.702Z</time>
      </trkpt>
      <trkpt lat="48.6438" lon="-2.47973">
        <ele>50.2</ele>
        <time>2020-07-27T10:27:28.127Z</time>
      </trkpt>
      <trkpt lat="48.64384" lon="-2.47961">
        <ele>51.5</ele>
        <time>2020-07-27T10:28:44.851Z</time>
      </trkpt>
      <trkpt lat="48.64387" lon="-2.47949">
        <ele>53.2</ele>
        <time>2020-07-27T10:29:58.091Z</time>
      </trkpt>
      <trkpt lat="48.6439" lon="-2.47936">
        <ele>52.1</ele>
        <time>2020-07-27T10:30:01.172Z</time>
      </trkpt>
      <trkpt lat="48.64389" lon="-2.47919">
        <ele>51.1</ele>
        <time>2020-07-27T10:30:04.991Z</time>
      </trkpt>
      <trkpt lat="48.64386" lon="-2.47907">
        <ele>50.4</ele>
        <time>2020-07-27T10:30:07.862Z</time>
      </trkpt>
      <trkpt lat="48.64384" lon="-2.47891">
        <ele>49.3</ele>
        <time>2020-07-27T10:30:11.506Z</time>
      </trkpt>
      <trkpt lat="48.64383" lon="-2.47876">
        <ele>48.9</ele>
        <time>2020-07-27T10:30:15.373Z</time>
      </trkpt>
      <trkpt lat="48.64383" lon="-2.47863">
        <ele>48.4</ele>
        <time>2020-07-27T10:30:18.221Z</time>
      </trkpt>
      <trkpt lat="48.64382" lon="-2.47849">
        <ele>49.1</ele>
        <time>2020-07-27T10:31:01.880Z</time>
      </trkpt>
      <trkpt lat="48.64382" lon="-2.47835">
        <ele>49.5</ele>
        <time>2020-07-27T10:31:36.188Z</time>
      </trkpt>
      <trkpt lat="48.64379" lon="-2.47822">
        <ele>50.7</ele>
        <time>2020-07-27T10:32:53.079Z</time>
      </trkpt>
      <trkpt lat="48.64376" lon="-2.47806">
        <ele>52.2</ele>
        <time>2020-07-27T10:34:28.020Z</time>
      </trkpt>
      <trkpt lat="48.64376" lon="-2.4779">
        <ele>51.2</ele>
        <time>2020-07-27T10:34:31.600Z</time>
      </trkpt>
      <trkpt lat="48.64374" lon="-2.47775">
        <ele>50.2</ele>
        <time>2020-07-27T10:34:35.024Z</time>
      </trkpt>
      <trkpt lat="48.6437" lon="-2.47763">
        <ele>49.8</ele>
        <time>2020-07-27T10:34:38.319Z</time>
      </trkpt>
      <trkpt lat="48.64362" lon="-2.47753">
        <ele>51.6</ele>
        <time>2020-07-27T10:36:07.961Z</time>
      </trkpt>
      <trkpt lat="48.64358" lon="-2.4774">
        <ele>51.2</ele>
        <time>2020-07-27T10:36:11.569Z</time>
      </trkpt>
      <trkpt lat="48.64353" lon="-2.47727">
        <ele>50.7</ele>
        <time>2020-07-27T10:36:15.089Z</time>
      </trkpt>
      <trkpt lat="48.64352" lon="-2.47711">
        <ele>49.9</ele>
        <time>2020-07-27T10:36:18.685Z</time>
      </trkpt>
      <trkpt lat="48.64352" lon="-2.47696">
        <ele>48.8</ele>
        <time>2020-07-27T10:36:22.042Z</time>
      </trkpt>
      <trkpt lat="48.6435" lon="-2.47682">
        <ele>48.7</ele>
        <time>2020-07-27T10:36:27.150Z</time>
      </trkpt>
      <trkpt lat="48.64349" lon="-2.47668">
        <ele>48.5</ele>
        <time>2020-07-27T10:36:31.539Z</time>
      </trkpt>
      <trkpt lat="48.6435" lon="-2.47653">
        <ele>48.1</ele>
        <time>2020-07-27T10:36:35.407Z</time>
      </trkpt>
      <trkpt lat="48.64351" lon="-2.47639">
        <ele>47.6</ele>
        <time>2020-07-27T10:36:38.607Z</time>
      </trkpt>
      <trkpt lat="48.64351" lon="-2.47625">
        <ele>47.5</ele>
        <time>2020-07-27T10:36:43.584Z</time>
      </trkpt>
      <trkpt lat="48.6435" lon="-2.47612">
        <ele>47.5</ele>
        <time>2020-07-27T10:37:02.953Z</time>
      </trkpt>
      <trkpt lat="48.64342" lon="-2.47604">
        <ele>47.7</ele>
        <time>2020-07-27T10:37:29.503Z</time>
      </trkpt>
      <trkpt lat="48.64334" lon="-2.47598">
        <ele>48</ele>
        <time>2020-07-27T10:37:58.393Z</time>
      </trkpt>
      <trkpt lat="48.64324" lon="-2.47596">
        <ele>46.4</ele>
        <time>2020-07-27T10:38:01.809Z</time>
      </trkpt>
      <trkpt lat="48.64319" lon="-2.47604">
        <ele>47.6</ele>
        <time>2020-07-27T10:39:04.670Z</time>
      </trkpt>
      <trkpt lat="48.64316" lon="-2.47617">
        <ele>49.6</ele>
        <time>2020-07-27T10:40:23.276Z</time>
      </trkpt>
      <trkpt lat="48.64316" lon="-2.47631">
        <ele>50.7</ele>
        <time>2020-07-27T10:41:29.332Z</time>
      </trkpt>
      <trkpt lat="48.64308" lon="-2.4764">
        <ele>51.1</ele>
        <time>2020-07-27T10:42:04.635Z</time>
      </trkpt>
      <trkpt lat="48.643" lon="-2.47647">
        <ele>50.1</ele>
        <time>2020-07-27T10:42:07.765Z</time>
      </trkpt>
      <trkpt lat="48.64292" lon="-2.47645">
        <ele>48.8</ele>
        <time>2020-07-27T10:42:10.511Z</time>
      </trkpt>
      <trkpt lat="48.64289" lon="-2.47633">
        <ele>46.8</ele>
        <time>2020-07-27T10:42:13.382Z</time>
      </trkpt>
      <trkpt lat="48.64287" lon="-2.47623">
        <ele>44.5</ele>
        <time>2020-07-27T10:42:15.719Z</time>
      </trkpt>
      <trkpt lat="48.64282" lon="-2.47613">
        <ele>40.8</ele>
        <time>2020-07-27T10:42:18.526Z</time>
      </trkpt>
      <trkpt lat="48.64275" lon="-2.47604">
        <ele>38</ele>
        <time>2020-07-27T10:42:21.636Z</time>
      </trkpt>
      <trkpt lat="48.64274" lon="-2.47591">
        <ele>36.1</ele>
        <time>2020-07-27T10:42:24.565Z</time>
      </trkpt>
      <trkpt lat="48.64269" lon="-2.47593">
        <ele>36.5</ele>
        <time>2020-07-27T10:42:49.241Z</time>
      </trkpt>
      <trkpt lat="48.6427" lon="-2.47591">
        <ele>36.2</ele>
        <time>2020-07-27T10:42:49.802Z</time>
      </trkpt>
      <trkpt lat="48.64271" lon="-2.47589">
        <ele>35.8</ele>
        <time>2020-07-27T10:42:50.363Z</time>
      </trkpt>
      <trkpt lat="48.64276" lon="-2.4758">
        <ele>35.2</ele>
        <time>2020-07-27T10:42:52.994Z</time>
      </trkpt>
      <trkpt lat="48.64282" lon="-2.47569">
        <ele>35.7</ele>
        <time>2020-07-27T10:43:30.660Z</time>
      </trkpt>
      <trkpt lat="48.6429" lon="-2.47559">
        <ele>35</ele>
        <time>2020-07-27T10:43:34.174Z</time>
      </trkpt>
      <trkpt lat="48.64298" lon="-2.47553">
        <ele>33.7</ele>
        <time>2020-07-27T10:43:37.197Z</time>
      </trkpt>
      <trkpt lat="48.64306" lon="-2.47545">
        <ele>32.2</ele>
        <time>2020-07-27T10:43:40.444Z</time>
      </trkpt>
      <trkpt lat="48.64317" lon="-2.47538">
        <ele>30.9</ele>
        <time>2020-07-27T10:43:44.485Z</time>
      </trkpt>
      <trkpt lat="48.64326" lon="-2.47533">
        <ele>29</ele>
        <time>2020-07-27T10:43:47.732Z</time>
      </trkpt>
      <trkpt lat="48.64336" lon="-2.47529">
        <ele>27</ele>
        <time>2020-07-27T10:43:51.235Z</time>
      </trkpt>
      <trkpt lat="48.64345" lon="-2.47528">
        <ele>25.7</ele>
        <time>2020-07-27T10:43:54.291Z</time>
      </trkpt>
      <trkpt lat="48.64355" lon="-2.47527">
        <ele>24.7</ele>
        <time>2020-07-27T10:43:57.685Z</time>
      </trkpt>
      <trkpt lat="48.64364" lon="-2.47526">
        <ele>23.6</ele>
        <time>2020-07-27T10:44:00.741Z</time>
      </trkpt>
      <trkpt lat="48.64373" lon="-2.47526">
        <ele>22.3</ele>
        <time>2020-07-27T10:44:03.789Z</time>
      </trkpt>
      <trkpt lat="48.64382" lon="-2.4753">
        <ele>21.3</ele>
        <time>2020-07-27T10:44:06.965Z</time>
      </trkpt>
      <trkpt lat="48.64392" lon="-2.47536">
        <ele>20.5</ele>
        <time>2020-07-27T10:44:10.608Z</time>
      </trkpt>
      <trkpt lat="48.64401" lon="-2.47542">
        <ele>19.6</ele>
        <time>2020-07-27T10:44:13.939Z</time>
      </trkpt>
      <trkpt lat="48.64409" lon="-2.4755">
        <ele>19</ele>
        <time>2020-07-27T10:44:17.009Z</time>
      </trkpt>
      <trkpt lat="48.64416" lon="-2.47561">
        <ele>18.1</ele>
        <time>2020-07-27T10:44:20.426Z</time>
      </trkpt>
      <trkpt lat="48.64424" lon="-2.47567">
        <ele>17.1</ele>
        <time>2020-07-27T10:44:23.449Z</time>
      </trkpt>
      <trkpt lat="48.64431" lon="-2.47563">
        <ele>16.1</ele>
        <time>2020-07-27T10:44:25.983Z</time>
      </trkpt>
      <trkpt lat="48.64437" lon="-2.47554">
        <ele>15</ele>
        <time>2020-07-27T10:44:28.844Z</time>
      </trkpt>
      <trkpt lat="48.6444" lon="-2.47543">
        <ele>14.1</ele>
        <time>2020-07-27T10:44:31.507Z</time>
      </trkpt>
      <trkpt lat="48.64447" lon="-2.47534">
        <ele>12.9</ele>
        <time>2020-07-27T10:44:34.617Z</time>
      </trkpt>
      <trkpt lat="48.64457" lon="-2.47534">
        <ele>11.5</ele>
        <time>2020-07-27T10:44:38.004Z</time>
      </trkpt>
      <trkpt lat="48.64463" lon="-2.47536">
        <ele>10.6</ele>
        <time>2020-07-27T10:44:40.084Z</time>
      </trkpt>
      <trkpt lat="48.64452" lon="-2.47538">
        <ele>12.1</ele>
        <time>2020-07-27T10:46:15.802Z</time>
      </trkpt>
      <trkpt lat="48.64456" lon="-2.47522">
        <ele>12.3</ele>
        <time>2020-07-27T10:46:46.016Z</time>
      </trkpt>
      <trkpt lat="48.6446" lon="-2.47508">
        <ele>13.1</ele>
        <time>2020-07-27T10:47:34.897Z</time>
      </trkpt>
      <trkpt lat="48.64465" lon="-2.47496">
        <ele>13.5</ele>
        <time>2020-07-27T10:48:09.365Z</time>
      </trkpt>
      <trkpt lat="48.64474" lon="-2.47488">
        <ele>12.5</ele>
        <time>2020-07-27T10:48:12.900Z</time>
      </trkpt>
      <trkpt lat="48.64481" lon="-2.47478">
        <ele>11</ele>
        <time>2020-07-27T10:48:16.159Z</time>
      </trkpt>
      <trkpt lat="48.64486" lon="-2.47465">
        <ele>10.7</ele>
        <time>2020-07-27T10:48:20.421Z</time>
      </trkpt>
      <trkpt lat="48.64489" lon="-2.4745">
        <ele>11</ele>
        <time>2020-07-27T10:48:51.993Z</time>
      </trkpt>
      <trkpt lat="48.64493" lon="-2.47436">
        <ele>11.5</ele>
        <time>2020-07-27T10:49:31.364Z</time>
      </trkpt>
      <trkpt lat="48.64497" lon="-2.47424">
        <ele>12.4</ele>
        <time>2020-07-27T10:50:23.778Z</time>
      </trkpt>
      <trkpt lat="48.64504" lon="-2.47415">
        <ele>12.2</ele>
        <time>2020-07-27T10:50:28.097Z</time>
      </trkpt>
      <trkpt lat="48.6451" lon="-2.47403">
        <ele>11.5</ele>
        <time>2020-07-27T10:50:31.464Z</time>
      </trkpt>
      <trkpt lat="48.64507" lon="-2.4739">
        <ele>13</ele>
        <time>2020-07-27T10:51:50.068Z</time>
      </trkpt>
      <trkpt lat="48.64504" lon="-2.47377">
        <ele>14.9</ele>
        <time>2020-07-27T10:53:08.671Z</time>
      </trkpt>
      <trkpt lat="48.645" lon="-2.47366">
        <ele>16.7</ele>
        <time>2020-07-27T10:54:20.344Z</time>
      </trkpt>
      <trkpt lat="48.64491" lon="-2.47358">
        <ele>18.7</ele>
        <time>2020-07-27T10:55:50.518Z</time>
      </trkpt>
      <trkpt lat="48.64484" lon="-2.47348">
        <ele>21</ele>
        <time>2020-07-27T10:57:13.679Z</time>
      </trkpt>
      <trkpt lat="48.64479" lon="-2.47335">
        <ele>23.6</ele>
        <time>2020-07-27T10:58:39.544Z</time>
      </trkpt>
      <trkpt lat="48.64472" lon="-2.47324">
        <ele>26.8</ele>
        <time>2020-07-27T11:00:06.723Z</time>
      </trkpt>
      <trkpt lat="48.64468" lon="-2.47311">
        <ele>29.8</ele>
        <time>2020-07-27T11:01:28.583Z</time>
      </trkpt>
      <trkpt lat="48.64463" lon="-2.473">
        <ele>33.2</ele>
        <time>2020-07-27T11:02:44.799Z</time>
      </trkpt>
      <trkpt lat="48.6446" lon="-2.47286">
        <ele>36.9</ele>
        <time>2020-07-27T11:04:08.813Z</time>
      </trkpt>
      <trkpt lat="48.64456" lon="-2.47274">
        <ele>39.7</ele>
        <time>2020-07-27T11:05:25.537Z</time>
      </trkpt>
      <trkpt lat="48.64454" lon="-2.4726">
        <ele>41.7</ele>
        <time>2020-07-27T11:06:47.300Z</time>
      </trkpt>
      <trkpt lat="48.64453" lon="-2.47246">
        <ele>43.4</ele>
        <time>2020-07-27T11:08:07.683Z</time>
      </trkpt>
      <trkpt lat="48.64456" lon="-2.47232">
        <ele>44.3</ele>
        <time>2020-07-27T11:09:00.491Z</time>
      </trkpt>
      <trkpt lat="48.64463" lon="-2.47219">
        <ele>45</ele>
        <time>2020-07-27T11:09:47.988Z</time>
      </trkpt>
      <trkpt lat="48.64472" lon="-2.47209">
        <ele>45.4</ele>
        <time>2020-07-27T11:10:25.211Z</time>
      </trkpt>
      <trkpt lat="48.64479" lon="-2.47199">
        <ele>45.4</ele>
        <time>2020-07-27T11:10:46.772Z</time>
      </trkpt>
      <trkpt lat="48.64489" lon="-2.47187">
        <ele>44.8</ele>
        <time>2020-07-27T11:10:51.424Z</time>
      </trkpt>
      <trkpt lat="48.64497" lon="-2.47176">
        <ele>44</ele>
        <time>2020-07-27T11:10:55.084Z</time>
      </trkpt>
      <trkpt lat="48.64509" lon="-2.47175">
        <ele>43.6</ele>
        <time>2020-07-27T11:11:00.076Z</time>
      </trkpt>
      <trkpt lat="48.64521" lon="-2.4718">
        <ele>43.2</ele>
        <time>2020-07-27T11:11:05.306Z</time>
      </trkpt>
      <trkpt lat="48.64531" lon="-2.47186">
        <ele>42.5</ele>
        <time>2020-07-27T11:11:08.684Z</time>
      </trkpt>
      <trkpt lat="48.64539" lon="-2.47194">
        <ele>41.6</ele>
        <time>2020-07-27T11:11:11.931Z</time>
      </trkpt>
      <trkpt lat="48.64542" lon="-2.47183">
        <ele>42.1</ele>
        <time>2020-07-27T11:11:45.736Z</time>
      </trkpt>
      <trkpt lat="48.6455" lon="-2.47174">
        <ele>42</ele>
        <time>2020-07-27T11:11:51.154Z</time>
      </trkpt>
      <trkpt lat="48.64558" lon="-2.47168">
        <ele>41.5</ele>
        <time>2020-07-27T11:11:54.168Z</time>
      </trkpt>
      <trkpt lat="48.64566" lon="-2.47157">
        <ele>40.6</ele>
        <time>2020-07-27T11:11:57.828Z</time>
      </trkpt>
      <trkpt lat="48.6457" lon="-2.47144">
        <ele>41.4</ele>
        <time>2020-07-27T11:12:45.748Z</time>
      </trkpt>
      <trkpt lat="48.64575" lon="-2.4713">
        <ele>41.8</ele>
        <time>2020-07-27T11:13:21.896Z</time>
      </trkpt>
      <trkpt lat="48.64582" lon="-2.47119">
        <ele>41.8</ele>
        <time>2020-07-27T11:13:44.497Z</time>
      </trkpt>
      <trkpt lat="48.64588" lon="-2.47107">
        <ele>41.8</ele>
        <time>2020-07-27T11:14:06.768Z</time>
      </trkpt>
      <trkpt lat="48.64594" lon="-2.47096">
        <ele>42</ele>
        <time>2020-07-27T11:14:32.971Z</time>
      </trkpt>
      <trkpt lat="48.64599" lon="-2.47085">
        <ele>42.3</ele>
        <time>2020-07-27T11:15:01.670Z</time>
      </trkpt>
      <trkpt lat="48.64606" lon="-2.47075">
        <ele>42.5</ele>
        <time>2020-07-27T11:15:28.298Z</time>
      </trkpt>
      <trkpt lat="48.64614" lon="-2.47067">
        <ele>42.5</ele>
        <time>2020-07-27T11:15:49.775Z</time>
      </trkpt>
      <trkpt lat="48.64622" lon="-2.47058">
        <ele>42.5</ele>
        <time>2020-07-27T11:16:12.101Z</time>
      </trkpt>
      <trkpt lat="48.64632" lon="-2.47051">
        <ele>42.4</ele>
        <time>2020-07-27T11:16:18.167Z</time>
      </trkpt>
      <trkpt lat="48.64642" lon="-2.47045">
        <ele>42.3</ele>
        <time>2020-07-27T11:16:24.072Z</time>
      </trkpt>
      <trkpt lat="48.6465" lon="-2.47039">
        <ele>42.2</ele>
        <time>2020-07-27T11:16:28.851Z</time>
      </trkpt>
      <trkpt lat="48.64659" lon="-2.47033">
        <ele>42.1</ele>
        <time>2020-07-27T11:16:34.188Z</time>
      </trkpt>
      <trkpt lat="48.64668" lon="-2.47031">
        <ele>41.8</ele>
        <time>2020-07-27T11:16:37.977Z</time>
      </trkpt>
      <trkpt lat="48.64677" lon="-2.47026">
        <ele>41.3</ele>
        <time>2020-07-27T11:16:41.319Z</time>
      </trkpt>
      <trkpt lat="48.64686" lon="-2.47022">
        <ele>40.8</ele>
        <time>2020-07-27T11:16:44.557Z</time>
      </trkpt>
      <trkpt lat="48.64695" lon="-2.47016">
        <ele>40.4</ele>
        <time>2020-07-27T11:16:48.357Z</time>
      </trkpt>
      <trkpt lat="48.64704" lon="-2.47009">
        <ele>39.9</ele>
        <time>2020-07-27T11:16:51.968Z</time>
      </trkpt>
      <trkpt lat="48.64712" lon="-2.47001">
        <ele>39.7</ele>
        <time>2020-07-27T11:16:56.525Z</time>
      </trkpt>
      <trkpt lat="48.64719" lon="-2.46991">
        <ele>39.8</ele>
        <time>2020-07-27T11:17:20.352Z</time>
      </trkpt>
      <trkpt lat="48.64727" lon="-2.46987">
        <ele>40</ele>
        <time>2020-07-27T11:17:44.467Z</time>
      </trkpt>
      <trkpt lat="48.64737" lon="-2.46984">
        <ele>40.5</ele>
        <time>2020-07-27T11:18:24.146Z</time>
      </trkpt>
      <trkpt lat="48.64746" lon="-2.46982">
        <ele>40.8</ele>
        <time>2020-07-27T11:18:53.340Z</time>
      </trkpt>
      <trkpt lat="48.64756" lon="-2.46978">
        <ele>40.9</ele>
        <time>2020-07-27T11:19:18.759Z</time>
      </trkpt>
      <trkpt lat="48.64765" lon="-2.46976">
        <ele>40.6</ele>
        <time>2020-07-27T11:19:22.548Z</time>
      </trkpt>
      <trkpt lat="48.64774" lon="-2.46974">
        <ele>40.7</ele>
        <time>2020-07-27T11:19:45.205Z</time>
      </trkpt>
      <trkpt lat="48.64782" lon="-2.46968">
        <ele>41</ele>
        <time>2020-07-27T11:20:14.094Z</time>
      </trkpt>
      <trkpt lat="48.64791" lon="-2.46961">
        <ele>41.2</ele>
        <time>2020-07-27T11:20:41.769Z</time>
      </trkpt>
      <trkpt lat="48.64798" lon="-2.4695">
        <ele>42.4</ele>
        <time>2020-07-27T11:21:53.833Z</time>
      </trkpt>
      <trkpt lat="48.64803" lon="-2.46938">
        <ele>43.3</ele>
        <time>2020-07-27T11:22:46.390Z</time>
      </trkpt>
      <trkpt lat="48.64812" lon="-2.46929">
        <ele>42.7</ele>
        <time>2020-07-27T11:22:50.042Z</time>
      </trkpt>
      <trkpt lat="48.64819" lon="-2.46921">
        <ele>42</ele>
        <time>2020-07-27T11:22:53.013Z</time>
      </trkpt>
      <trkpt lat="48.64821" lon="-2.46909">
        <ele>41.7</ele>
        <time>2020-07-27T11:22:56.295Z</time>
      </trkpt>
      <trkpt lat="48.64822" lon="-2.46896">
        <ele>41.5</ele>
        <time>2020-07-27T11:23:00.299Z</time>
      </trkpt>
      <trkpt lat="48.64821" lon="-2.46881">
        <ele>41.3</ele>
        <time>2020-07-27T11:23:05.076Z</time>
      </trkpt>
      <trkpt lat="48.64821" lon="-2.46865">
        <ele>40.7</ele>
        <time>2020-07-27T11:23:08.622Z</time>
      </trkpt>
      <trkpt lat="48.64822" lon="-2.46851">
        <ele>40.5</ele>
        <time>2020-07-27T11:23:13.010Z</time>
      </trkpt>
      <trkpt lat="48.64821" lon="-2.46836">
        <ele>41</ele>
        <time>2020-07-27T11:23:52.072Z</time>
      </trkpt>
      <trkpt lat="48.64822" lon="-2.46822">
        <ele>41</ele>
        <time>2020-07-27T11:24:12.910Z</time>
      </trkpt>
      <trkpt lat="48.64822" lon="-2.46807">
        <ele>41.4</ele>
        <time>2020-07-27T11:24:48.128Z</time>
      </trkpt>
      <trkpt lat="48.64824" lon="-2.46791">
        <ele>41.6</ele>
        <time>2020-07-27T11:25:17.171Z</time>
      </trkpt>
      <trkpt lat="48.6483" lon="-2.46778">
        <ele>41.4</ele>
        <time>2020-07-27T11:25:22.254Z</time>
      </trkpt>
      <trkpt lat="48.64838" lon="-2.46773">
        <ele>40.8</ele>
        <time>2020-07-27T11:25:25.185Z</time>
      </trkpt>
      <trkpt lat="48.64847" lon="-2.4677">
        <ele>40.1</ele>
        <time>2020-07-27T11:25:28.306Z</time>
      </trkpt>
      <trkpt lat="48.64855" lon="-2.46765">
        <ele>39.8</ele>
        <time>2020-07-27T11:25:31.852Z</time>
      </trkpt>
      <trkpt lat="48.64865" lon="-2.46763">
        <ele>39.7</ele>
        <time>2020-07-27T11:25:37.343Z</time>
      </trkpt>
      <trkpt lat="48.64874" lon="-2.46765">
        <ele>39.4</ele>
        <time>2020-07-27T11:25:41.133Z</time>
      </trkpt>
      <trkpt lat="48.64884" lon="-2.46763">
        <ele>39.6</ele>
        <time>2020-07-27T11:26:08.740Z</time>
      </trkpt>
      <trkpt lat="48.64891" lon="-2.46766">
        <ele>38.8</ele>
        <time>2020-07-27T11:26:11.204Z</time>
      </trkpt>
      <trkpt lat="48.649" lon="-2.46763">
        <ele>37.7</ele>
        <time>2020-07-27T11:26:14.325Z</time>
      </trkpt>
      <trkpt lat="48.64908" lon="-2.46757">
        <ele>37.6</ele>
        <time>2020-07-27T11:26:19.104Z</time>
      </trkpt>
      <trkpt lat="48.64918" lon="-2.46755">
        <ele>36.6</ele>
        <time>2020-07-27T11:26:22.520Z</time>
      </trkpt>
      <trkpt lat="48.64925" lon="-2.46749">
        <ele>36.8</ele>
        <time>2020-07-27T11:26:45.851Z</time>
      </trkpt>
      <trkpt lat="48.64935" lon="-2.46744">
        <ele>35.4</ele>
        <time>2020-07-27T11:26:49.418Z</time>
      </trkpt>
      <trkpt lat="48.64941" lon="-2.46736">
        <ele>34.2</ele>
        <time>2020-07-27T11:26:52.126Z</time>
      </trkpt>
      <trkpt lat="48.64935" lon="-2.46727">
        <ele>35.2</ele>
        <time>2020-07-27T11:27:52.065Z</time>
      </trkpt>
      <trkpt lat="48.64927" lon="-2.46719">
        <ele>36.6</ele>
        <time>2020-07-27T11:29:14.903Z</time>
      </trkpt>
      <trkpt lat="48.64919" lon="-2.46713">
        <ele>37.8</ele>
        <time>2020-07-27T11:30:32.038Z</time>
      </trkpt>
      <trkpt lat="48.64913" lon="-2.46701">
        <ele>38</ele>
        <time>2020-07-27T11:30:59.338Z</time>
      </trkpt>
      <trkpt lat="48.64909" lon="-2.46688">
        <ele>37.7</ele>
        <time>2020-07-27T11:31:03.339Z</time>
      </trkpt>
      <trkpt lat="48.64906" lon="-2.46674">
        <ele>37.6</ele>
        <time>2020-07-27T11:31:08.607Z</time>
      </trkpt>
      <trkpt lat="48.649" lon="-2.46663">
        <ele>37.5</ele>
        <time>2020-07-27T11:31:13.690Z</time>
      </trkpt>
      <trkpt lat="48.64895" lon="-2.46651">
        <ele>37.5</ele>
        <time>2020-07-27T11:31:34.684Z</time>
      </trkpt>
      <trkpt lat="48.6489" lon="-2.46639">
        <ele>37.8</ele>
        <time>2020-07-27T11:32:04.387Z</time>
      </trkpt>
      <trkpt lat="48.64882" lon="-2.46634">
        <ele>38.7</ele>
        <time>2020-07-27T11:32:56.837Z</time>
      </trkpt>
      <trkpt lat="48.64877" lon="-2.4662">
        <ele>39.3</ele>
        <time>2020-07-27T11:33:40.016Z</time>
      </trkpt>
      <trkpt lat="48.64876" lon="-2.46604">
        <ele>39.4</ele>
        <time>2020-07-27T11:34:06.044Z</time>
      </trkpt>
      <trkpt lat="48.64876" lon="-2.46588">
        <ele>39.4</ele>
        <time>2020-07-27T11:34:29.721Z</time>
      </trkpt>
      <trkpt lat="48.64875" lon="-2.46572">
        <ele>39.3</ele>
        <time>2020-07-27T11:34:35.540Z</time>
      </trkpt>
      <trkpt lat="48.64874" lon="-2.46558">
        <ele>39.2</ele>
        <time>2020-07-27T11:34:40.549Z</time>
      </trkpt>
      <trkpt lat="48.64874" lon="-2.46544">
        <ele>38.5</ele>
        <time>2020-07-27T11:34:43.682Z</time>
      </trkpt>
      <trkpt lat="48.64874" lon="-2.4653">
        <ele>38</ele>
        <time>2020-07-27T11:34:46.854Z</time>
      </trkpt>
      <trkpt lat="48.64872" lon="-2.46517">
        <ele>37.3</ele>
        <time>2020-07-27T11:34:49.841Z</time>
      </trkpt>
      <trkpt lat="48.64866" lon="-2.46507">
        <ele>37.9</ele>
        <time>2020-07-27T11:35:29.242Z</time>
      </trkpt>
      <trkpt lat="48.64857" lon="-2.46507">
        <ele>39.5</ele>
        <time>2020-07-27T11:36:46.997Z</time>
      </trkpt>
      <trkpt lat="48.64847" lon="-2.46502">
        <ele>39.2</ele>
        <time>2020-07-27T11:36:51.595Z</time>
      </trkpt>
      <trkpt lat="48.64839" lon="-2.46494">
        <ele>37.9</ele>
        <time>2020-07-27T11:36:54.842Z</time>
      </trkpt>
      <trkpt lat="48.6483" lon="-2.46486">
        <ele>37.1</ele>
        <time>2020-07-27T11:36:58.377Z</time>
      </trkpt>
      <trkpt lat="48.64821" lon="-2.46474">
        <ele>37.3</ele>
        <time>2020-07-27T11:37:30.085Z</time>
      </trkpt>
      <trkpt lat="48.64812" lon="-2.46465">
        <ele>37.8</ele>
        <time>2020-07-27T11:38:11.346Z</time>
      </trkpt>
      <trkpt lat="48.64804" lon="-2.46446">
        <ele>36.7</ele>
        <time>2020-07-27T11:38:16.387Z</time>
      </trkpt>
      <trkpt lat="48.64792" lon="-2.46434">
        <ele>36.4</ele>
        <time>2020-07-27T11:38:23.222Z</time>
      </trkpt>
      <trkpt lat="48.64786" lon="-2.46422">
        <ele>35.8</ele>
        <time>2020-07-27T11:38:26.462Z</time>
      </trkpt>
      <trkpt lat="48.64777" lon="-2.46412">
        <ele>36.7</ele>
        <time>2020-07-27T11:39:21.159Z</time>
      </trkpt>
      <trkpt lat="48.64767" lon="-2.46409">
        <ele>37.1</ele>
        <time>2020-07-27T11:39:56.804Z</time>
      </trkpt>
      <trkpt lat="48.64758" lon="-2.46407">
        <ele>37.8</ele>
        <time>2020-07-27T11:40:40.072Z</time>
      </trkpt>
      <trkpt lat="48.64748" lon="-2.46402">
        <ele>38</ele>
        <time>2020-07-27T11:41:08.628Z</time>
      </trkpt>
      <trkpt lat="48.64738" lon="-2.46397">
        <ele>37.9</ele>
        <time>2020-07-27T11:41:14.394Z</time>
      </trkpt>
      <trkpt lat="48.6473" lon="-2.4639">
        <ele>37.5</ele>
        <time>2020-07-27T11:41:17.878Z</time>
      </trkpt>
      <trkpt lat="48.64721" lon="-2.46387">
        <ele>37.8</ele>
        <time>2020-07-27T11:41:47.290Z</time>
      </trkpt>
      <trkpt lat="48.64711" lon="-2.46384">
        <ele>38.6</ele>
        <time>2020-07-27T11:42:36.374Z</time>
      </trkpt>
      <trkpt lat="48.64702" lon="-2.46387">
        <ele>40.1</ele>
        <time>2020-07-27T11:43:55.993Z</time>
      </trkpt>
      <trkpt lat="48.64698" lon="-2.46386">
        <ele>40.5</ele>
        <time>2020-07-27T11:44:19.304Z</time>
      </trkpt>
      <trkpt lat="48.64692" lon="-2.46378">
        <ele>40.7</ele>
        <time>2020-07-27T11:44:42.537Z</time>
      </trkpt>
      <trkpt lat="48.64689" lon="-2.46374">
        <ele>40.7</ele>
        <time>2020-07-27T11:44:51.492Z</time>
      </trkpt>
      <trkpt lat="48.64684" lon="-2.46363">
        <ele>40.4</ele>
        <time>2020-07-27T11:44:55.129Z</time>
      </trkpt>
      <trkpt lat="48.64689" lon="-2.4635">
        <ele>40</ele>
        <time>2020-07-27T11:44:58.984Z</time>
      </trkpt>
      <trkpt lat="48.64699" lon="-2.46344">
        <ele>37.9</ele>
        <time>2020-07-27T11:45:02.627Z</time>
      </trkpt>
      <trkpt lat="48.64704" lon="-2.46338">
        <ele>35.9</ele>
        <time>2020-07-27T11:45:04.788Z</time>
      </trkpt>
      <trkpt lat="48.64711" lon="-2.46333">
        <ele>32.8</ele>
        <time>2020-07-27T11:45:07.409Z</time>
      </trkpt>
      <trkpt lat="48.6472" lon="-2.46326">
        <ele>28.9</ele>
        <time>2020-07-27T11:45:10.836Z</time>
      </trkpt>
      <trkpt lat="48.64728" lon="-2.46319">
        <ele>25.2</ele>
        <time>2020-07-27T11:45:13.965Z</time>
      </trkpt>
      <trkpt lat="48.64735" lon="-2.46314">
        <ele>22.2</ele>
        <time>2020-07-27T11:45:16.587Z</time>
      </trkpt>
      <trkpt lat="48.6474" lon="-2.46309">
        <ele>20.2</ele>
        <time>2020-07-27T11:45:18.616Z</time>
      </trkpt>
      <trkpt lat="48.64745" lon="-2.46302">
        <ele>18.2</ele>
        <time>2020-07-27T11:45:20.922Z</time>
      </trkpt>
      <trkpt lat="48.64746" lon="-2.46293">
        <ele>17.7</ele>
        <time>2020-07-27T11:45:22.964Z</time>
      </trkpt>
      <trkpt lat="48.64746" lon="-2.46277">
        <ele>17.2</ele>
        <time>2020-07-27T11:45:26.808Z</time>
      </trkpt>
      <trkpt lat="48.64744" lon="-2.46264">
        <ele>17.7</ele>
        <time>2020-07-27T11:46:02.932Z</time>
      </trkpt>
      <trkpt lat="48.64746" lon="-2.46247">
        <ele>17</ele>
        <time>2020-07-27T11:46:06.620Z</time>
      </trkpt>
      <trkpt lat="48.64748" lon="-2.46231">
        <ele>15.3</ele>
        <time>2020-07-27T11:46:10.263Z</time>
      </trkpt>
      <trkpt lat="48.64748" lon="-2.46215">
        <ele>14.3</ele>
        <time>2020-07-27T11:46:13.843Z</time>
      </trkpt>
      <trkpt lat="48.64747" lon="-2.462">
        <ele>14.3</ele>
        <time>2020-07-27T11:46:36.154Z</time>
      </trkpt>
      <trkpt lat="48.64747" lon="-2.46183">
        <ele>13.6</ele>
        <time>2020-07-27T11:46:39.757Z</time>
      </trkpt>
      <trkpt lat="48.64744" lon="-2.46167">
        <ele>13</ele>
        <time>2020-07-27T11:46:43.509Z</time>
      </trkpt>
      <trkpt lat="48.64743" lon="-2.46151">
        <ele>13.2</ele>
        <time>2020-07-27T11:47:12.251Z</time>
      </trkpt>
      <trkpt lat="48.64742" lon="-2.46137">
        <ele>13.2</ele>
        <time>2020-07-27T11:47:33.090Z</time>
      </trkpt>
      <trkpt lat="48.64738" lon="-2.46124">
        <ele>12.6</ele>
        <time>2020-07-27T11:47:36.106Z</time>
      </trkpt>
      <trkpt lat="48.64734" lon="-2.4611">
        <ele>12.2</ele>
        <time>2020-07-27T11:47:40.036Z</time>
      </trkpt>
      <trkpt lat="48.64735" lon="-2.46098">
        <ele>13.6</ele>
        <time>2020-07-27T11:48:49.074Z</time>
      </trkpt>
      <trkpt lat="48.64742" lon="-2.46088">
        <ele>13.8</ele>
        <time>2020-07-27T11:49:15.702Z</time>
      </trkpt>
      <trkpt lat="48.64748" lon="-2.46076">
        <ele>13.7</ele>
        <time>2020-07-27T11:49:21.105Z</time>
      </trkpt>
      <trkpt lat="48.64755" lon="-2.46067">
        <ele>12.5</ele>
        <time>2020-07-27T11:49:24.215Z</time>
      </trkpt>
      <trkpt lat="48.64762" lon="-2.46058">
        <ele>11</ele>
        <time>2020-07-27T11:49:27.326Z</time>
      </trkpt>
      <trkpt lat="48.64763" lon="-2.46045">
        <ele>11.3</ele>
        <time>2020-07-27T11:49:55.716Z</time>
      </trkpt>
      <trkpt lat="48.64761" lon="-2.46031">
        <ele>12.6</ele>
        <time>2020-07-27T11:51:17.474Z</time>
      </trkpt>
      <trkpt lat="48.64758" lon="-2.46017">
        <ele>14.5</ele>
        <time>2020-07-27T11:52:41.484Z</time>
      </trkpt>
      <trkpt lat="48.64754" lon="-2.46005">
        <ele>16.8</ele>
        <time>2020-07-27T11:53:58.204Z</time>
      </trkpt>
      <trkpt lat="48.64749" lon="-2.45993">
        <ele>19.6</ele>
        <time>2020-07-27T11:55:19.184Z</time>
      </trkpt>
      <trkpt lat="48.64746" lon="-2.4598">
        <ele>22.4</ele>
        <time>2020-07-27T11:56:37.784Z</time>
      </trkpt>
      <trkpt lat="48.64743" lon="-2.45965">
        <ele>25.7</ele>
        <time>2020-07-27T11:58:07.241Z</time>
      </trkpt>
      <trkpt lat="48.64744" lon="-2.45951">
        <ele>28.6</ele>
        <time>2020-07-27T11:59:27.619Z</time>
      </trkpt>
      <trkpt lat="48.64739" lon="-2.45939">
        <ele>31.3</ele>
        <time>2020-07-27T12:00:48.599Z</time>
      </trkpt>
      <trkpt lat="48.64742" lon="-2.45933">
        <ele>31.9</ele>
        <time>2020-07-27T12:01:24.869Z</time>
      </trkpt>
      <trkpt lat="48.64752" lon="-2.45929">
        <ele>31.7</ele>
        <time>2020-07-27T12:01:29.873Z</time>
      </trkpt>
      <trkpt lat="48.6476" lon="-2.45921">
        <ele>32.5</ele>
        <time>2020-07-27T12:02:17.960Z</time>
      </trkpt>
      <trkpt lat="48.64771" lon="-2.45918">
        <ele>32.2</ele>
        <time>2020-07-27T12:02:22.927Z</time>
      </trkpt>
      <trkpt lat="48.64782" lon="-2.45918">
        <ele>31.4</ele>
        <time>2020-07-27T12:02:26.652Z</time>
      </trkpt>
      <trkpt lat="48.64791" lon="-2.45918">
        <ele>30.3</ele>
        <time>2020-07-27T12:02:29.700Z</time>
      </trkpt>
      <trkpt lat="48.64798" lon="-2.45909">
        <ele>30.7</ele>
        <time>2020-07-27T12:03:03.926Z</time>
      </trkpt>
      <trkpt lat="48.64798" lon="-2.45896">
        <ele>32</ele>
        <time>2020-07-27T12:04:18.129Z</time>
      </trkpt>
      <trkpt lat="48.64797" lon="-2.45882">
        <ele>33.8</ele>
        <time>2020-07-27T12:05:38.506Z</time>
      </trkpt>
      <trkpt lat="48.64796" lon="-2.45868">
        <ele>35.7</ele>
        <time>2020-07-27T12:06:58.883Z</time>
      </trkpt>
      <trkpt lat="48.64799" lon="-2.45855">
        <ele>37.2</ele>
        <time>2020-07-27T12:08:17.482Z</time>
      </trkpt>
      <trkpt lat="48.64798" lon="-2.45843">
        <ele>38.8</ele>
        <time>2020-07-27T12:09:26.520Z</time>
      </trkpt>
      <trkpt lat="48.648" lon="-2.45829">
        <ele>40.4</ele>
        <time>2020-07-27T12:10:48.278Z</time>
      </trkpt>
      <trkpt lat="48.64801" lon="-2.45814">
        <ele>41.5</ele>
        <time>2020-07-27T12:11:52.864Z</time>
      </trkpt>
      <trkpt lat="48.64803" lon="-2.45801">
        <ele>42.3</ele>
        <time>2020-07-27T12:12:39.969Z</time>
      </trkpt>
      <trkpt lat="48.64804" lon="-2.45788">
        <ele>42.7</ele>
        <time>2020-07-27T12:13:13.025Z</time>
      </trkpt>
      <trkpt lat="48.64807" lon="-2.45774">
        <ele>42.8</ele>
        <time>2020-07-27T12:13:37.070Z</time>
      </trkpt>
      <trkpt lat="48.64808" lon="-2.45761">
        <ele>42.7</ele>
        <time>2020-07-27T12:13:41.676Z</time>
      </trkpt>
      <trkpt lat="48.64808" lon="-2.45746">
        <ele>42.6</ele>
        <time>2020-07-27T12:13:47.059Z</time>
      </trkpt>
      <trkpt lat="48.64807" lon="-2.45733">
        <ele>42.1</ele>
        <time>2020-07-27T12:13:49.934Z</time>
      </trkpt>
      <trkpt lat="48.64803" lon="-2.4572">
        <ele>41.6</ele>
        <time>2020-07-27T12:13:53.220Z</time>
      </trkpt>
      <trkpt lat="48.64797" lon="-2.45709">
        <ele>40.2</ele>
        <time>2020-07-27T12:13:56.411Z</time>
      </trkpt>
      <trkpt lat="48.64793" lon="-2.45696">
        <ele>39</ele>
        <time>2020-07-27T12:13:59.620Z</time>
      </trkpt>
      <trkpt lat="48.6479" lon="-2.45684">
        <ele>38.9</ele>
        <time>2020-07-27T12:14:04.122Z</time>
      </trkpt>
      <trkpt lat="48.64787" lon="-2.4567">
        <ele>39.1</ele>
        <time>2020-07-27T12:14:30.958Z</time>
      </trkpt>
      <trkpt lat="48.64783" lon="-2.45657">
        <ele>39.7</ele>
        <time>2020-07-27T12:15:11.616Z</time>
      </trkpt>
      <trkpt lat="48.64779" lon="-2.45645">
        <ele>40.7</ele>
        <time>2020-07-27T12:16:10.588Z</time>
      </trkpt>
      <trkpt lat="48.64777" lon="-2.45631">
        <ele>40.1</ele>
        <time>2020-07-27T12:16:13.598Z</time>
      </trkpt>
      <trkpt lat="48.64775" lon="-2.45617">
        <ele>38.7</ele>
        <time>2020-07-27T12:16:16.803Z</time>
      </trkpt>
      <trkpt lat="48.64774" lon="-2.45603">
        <ele>37.4</ele>
        <time>2020-07-27T12:16:19.953Z</time>
      </trkpt>
      <trkpt lat="48.64773" lon="-2.45588">
        <ele>36.2</ele>
        <time>2020-07-27T12:16:23.326Z</time>
      </trkpt>
      <trkpt lat="48.64771" lon="-2.45575">
        <ele>35</ele>
        <time>2020-07-27T12:16:26.313Z</time>
      </trkpt>
      <trkpt lat="48.64767" lon="-2.45563">
        <ele>34.5</ele>
        <time>2020-07-27T12:16:29.303Z</time>
      </trkpt>
      <trkpt lat="48.64762" lon="-2.4555">
        <ele>34.6</ele>
        <time>2020-07-27T12:16:53.823Z</time>
      </trkpt>
      <trkpt lat="48.6476" lon="-2.45536">
        <ele>34.4</ele>
        <time>2020-07-27T12:16:58.306Z</time>
      </trkpt>
      <trkpt lat="48.64764" lon="-2.4552">
        <ele>33.5</ele>
        <time>2020-07-27T12:17:02.134Z</time>
      </trkpt>
      <trkpt lat="48.64765" lon="-2.45506">
        <ele>33.8</ele>
        <time>2020-07-27T12:17:31.707Z</time>
      </trkpt>
      <trkpt lat="48.64764" lon="-2.4549">
        <ele>34.9</ele>
        <time>2020-07-27T12:18:35.801Z</time>
      </trkpt>
      <trkpt lat="48.64766" lon="-2.45476">
        <ele>35.3</ele>
        <time>2020-07-27T12:19:10.389Z</time>
      </trkpt>
      <trkpt lat="48.64764" lon="-2.45465">
        <ele>34.9</ele>
        <time>2020-07-27T12:19:12.997Z</time>
      </trkpt>
      <trkpt lat="48.64754" lon="-2.45465">
        <ele>36.8</ele>
        <time>2020-07-27T12:20:39.391Z</time>
      </trkpt>
      <trkpt lat="48.64745" lon="-2.45464">
        <ele>36.9</ele>
        <time>2020-07-27T12:21:01.888Z</time>
      </trkpt>
      <trkpt lat="48.64735" lon="-2.45464">
        <ele>36.3</ele>
        <time>2020-07-27T12:21:05.155Z</time>
      </trkpt>
      <trkpt lat="48.64727" lon="-2.45472">
        <ele>38</ele>
        <time>2020-07-27T12:22:27.993Z</time>
      </trkpt>
      <trkpt lat="48.64717" lon="-2.45477">
        <ele>36.9</ele>
        <time>2020-07-27T12:22:31.560Z</time>
      </trkpt>
      <trkpt lat="48.64709" lon="-2.45485">
        <ele>35.5</ele>
        <time>2020-07-27T12:22:34.807Z</time>
      </trkpt>
      <trkpt lat="48.64702" lon="-2.45496">
        <ele>35.6</ele>
        <time>2020-07-27T12:22:59.665Z</time>
      </trkpt>
      <trkpt lat="48.64692" lon="-2.45504">
        <ele>34.6</ele>
        <time>2020-07-27T12:23:03.495Z</time>
      </trkpt>
      <trkpt lat="48.64684" lon="-2.45514">
        <ele>33.7</ele>
        <time>2020-07-27T12:23:07.009Z</time>
      </trkpt>
      <trkpt lat="48.64676" lon="-2.45521">
        <ele>33.5</ele>
        <time>2020-07-27T12:23:11.361Z</time>
      </trkpt>
      <trkpt lat="48.64666" lon="-2.45523">
        <ele>33.2</ele>
        <time>2020-07-27T12:23:15.706Z</time>
      </trkpt>
      <trkpt lat="48.6466" lon="-2.45511">
        <ele>31.3</ele>
        <time>2020-07-27T12:23:19.074Z</time>
      </trkpt>
      <trkpt lat="48.64651" lon="-2.45504">
        <ele>31.4</ele>
        <time>2020-07-27T12:23:43.994Z</time>
      </trkpt>
      <trkpt lat="48.6464" lon="-2.4551">
        <ele>32.2</ele>
        <time>2020-07-27T12:24:36.074Z</time>
      </trkpt>
      <trkpt lat="48.64634" lon="-2.4552">
        <ele>32.2</ele>
        <time>2020-07-27T12:24:56.064Z</time>
      </trkpt>
      <trkpt lat="48.64627" lon="-2.45537">
        <ele>33.1</ele>
        <time>2020-07-27T12:25:54.830Z</time>
      </trkpt>
      <trkpt lat="48.64621" lon="-2.45557">
        <ele>34</ele>
        <time>2020-07-27T12:26:56.526Z</time>
      </trkpt>
      <trkpt lat="48.64617" lon="-2.45574">
        <ele>33.6</ele>
        <time>2020-07-27T12:27:01.464Z</time>
      </trkpt>
      <trkpt lat="48.64609" lon="-2.45589">
        <ele>33.3</ele>
        <time>2020-07-27T12:27:07.334Z</time>
      </trkpt>
      <trkpt lat="48.64603" lon="-2.45602">
        <ele>34.1</ele>
        <time>2020-07-27T12:27:56.933Z</time>
      </trkpt>
      <trkpt lat="48.64595" lon="-2.45612">
        <ele>34.6</ele>
        <time>2020-07-27T12:28:37.093Z</time>
      </trkpt>
      <trkpt lat="48.64587" lon="-2.45619">
        <ele>34.9</ele>
        <time>2020-07-27T12:29:06.551Z</time>
      </trkpt>
      <trkpt lat="48.64579" lon="-2.45629">
        <ele>35.1</ele>
        <time>2020-07-27T12:29:34.774Z</time>
      </trkpt>
      <trkpt lat="48.6457" lon="-2.45638">
        <ele>35</ele>
        <time>2020-07-27T12:29:40.698Z</time>
      </trkpt>
      <trkpt lat="48.64564" lon="-2.45645">
        <ele>35.1</ele>
        <time>2020-07-27T12:30:00.000Z</time>
      </trkpt>
    </trkseg>
  </trk>
</gpx>